<?xml version="1.0" encoding="UTF-8" standalone="no" ?>
<gpx xmlns="http://www.topografix.com/GPX/1/1" xmlns:xsi="http://www.w3.org/2001/XMLSchema-instance" xsi:schemaLocation="http://www.topografix.com/GPX/1/1 http://www.topografix.com/GPX/1/1/gpx.xsd" version="1.1" creator="VisuGPX - https://www.visugpx.com">
  <metadata>
    <name>marche ADEPS fraire</name>
    <desc><![CDATA[marche adeps à Fraire du 12 mars 2017 . Tracé pour un 15 km]]></desc>
  </metadata>
  <trk>
    <name><![CDATA[2017-03-12 14:46:34]]></name>
    <trkseg>
      <trkpt lat="50.26005" lon="4.51168">
        <ele>230.37</ele>
        <time>2017-03-12T10:26:42Z</time>
      </trkpt>
      <trkpt lat="50.25999" lon="4.51181">
        <ele>233.26</ele>
        <time>2017-03-12T10:26:51Z</time>
      </trkpt>
      <trkpt lat="50.25992" lon="4.51196">
        <ele>236.14</ele>
        <time>2017-03-12T10:27:00Z</time>
      </trkpt>
      <trkpt lat="50.25975" lon="4.51233">
        <ele>239.02</ele>
        <time>2017-03-12T10:27:18Z</time>
      </trkpt>
      <trkpt lat="50.25972" lon="4.51264">
        <ele>239.99</ele>
        <time>2017-03-12T10:27:35Z</time>
      </trkpt>
      <trkpt lat="50.25971" lon="4.51292">
        <ele>239.02</ele>
        <time>2017-03-12T10:27:53Z</time>
      </trkpt>
      <trkpt lat="50.25971" lon="4.51294">
        <ele>239.02</ele>
        <time>2017-03-12T10:27:54Z</time>
      </trkpt>
      <trkpt lat="50.25971" lon="4.51306">
        <ele>239.02</ele>
        <time>2017-03-12T10:28:00Z</time>
      </trkpt>
      <trkpt lat="50.25967" lon="4.51339">
        <ele>239.02</ele>
        <time>2017-03-12T10:28:17Z</time>
      </trkpt>
      <trkpt lat="50.25958" lon="4.51365">
        <ele>239.02</ele>
        <time>2017-03-12T10:28:33Z</time>
      </trkpt>
      <trkpt lat="50.25951" lon="4.51397">
        <ele>240.47</ele>
        <time>2017-03-12T10:28:50Z</time>
      </trkpt>
      <trkpt lat="50.25936" lon="4.51422">
        <ele>240.95</ele>
        <time>2017-03-12T10:29:07Z</time>
      </trkpt>
      <trkpt lat="50.25925" lon="4.51446">
        <ele>241.43</ele>
        <time>2017-03-12T10:29:22Z</time>
      </trkpt>
      <trkpt lat="50.25915" lon="4.51475">
        <ele>241.43</ele>
        <time>2017-03-12T10:29:38Z</time>
      </trkpt>
      <trkpt lat="50.25913" lon="4.51479">
        <ele>241.91</ele>
        <time>2017-03-12T10:29:41Z</time>
      </trkpt>
      <trkpt lat="50.25896" lon="4.51508">
        <ele>241.91</ele>
        <time>2017-03-12T10:30:00Z</time>
      </trkpt>
      <trkpt lat="50.25882" lon="4.51537">
        <ele>242.87</ele>
        <time>2017-03-12T10:30:17Z</time>
      </trkpt>
      <trkpt lat="50.25867" lon="4.51565">
        <ele>243.35</ele>
        <time>2017-03-12T10:30:35Z</time>
      </trkpt>
      <trkpt lat="50.25863" lon="4.51576">
        <ele>243.83</ele>
        <time>2017-03-12T10:30:42Z</time>
      </trkpt>
      <trkpt lat="50.25849" lon="4.51598">
        <ele>243.83</ele>
        <time>2017-03-12T10:30:58Z</time>
      </trkpt>
      <trkpt lat="50.25838" lon="4.51617">
        <ele>243.83</ele>
        <time>2017-03-12T10:31:11Z</time>
      </trkpt>
      <trkpt lat="50.25822" lon="4.51643">
        <ele>244.79</ele>
        <time>2017-03-12T10:31:29Z</time>
      </trkpt>
      <trkpt lat="50.25811" lon="4.51664">
        <ele>246.72</ele>
        <time>2017-03-12T10:31:44Z</time>
      </trkpt>
      <trkpt lat="50.258" lon="4.51684">
        <ele>246.72</ele>
        <time>2017-03-12T10:31:59Z</time>
      </trkpt>
      <trkpt lat="50.2579" lon="4.5171">
        <ele>248.16</ele>
        <time>2017-03-12T10:32:16Z</time>
      </trkpt>
      <trkpt lat="50.25788" lon="4.51719">
        <ele>248.64</ele>
        <time>2017-03-12T10:32:21Z</time>
      </trkpt>
      <trkpt lat="50.25788" lon="4.51726">
        <ele>248.64</ele>
        <time>2017-03-12T10:32:25Z</time>
      </trkpt>
      <trkpt lat="50.25788" lon="4.51764">
        <ele>249.12</ele>
        <time>2017-03-12T10:32:44Z</time>
      </trkpt>
      <trkpt lat="50.25786" lon="4.51796">
        <ele>249.12</ele>
        <time>2017-03-12T10:33:00Z</time>
      </trkpt>
      <trkpt lat="50.25785" lon="4.51812">
        <ele>249.12</ele>
        <time>2017-03-12T10:33:08Z</time>
      </trkpt>
      <trkpt lat="50.25786" lon="4.51827">
        <ele>249.6</ele>
        <time>2017-03-12T10:33:16Z</time>
      </trkpt>
      <trkpt lat="50.25787" lon="4.5185">
        <ele>249.6</ele>
        <time>2017-03-12T10:33:27Z</time>
      </trkpt>
      <trkpt lat="50.25786" lon="4.51872">
        <ele>249.6</ele>
        <time>2017-03-12T10:33:39Z</time>
      </trkpt>
      <trkpt lat="50.25786" lon="4.51898">
        <ele>249.6</ele>
        <time>2017-03-12T10:33:55Z</time>
      </trkpt>
      <trkpt lat="50.2579" lon="4.51923">
        <ele>251.04</ele>
        <time>2017-03-12T10:34:11Z</time>
      </trkpt>
      <trkpt lat="50.25794" lon="4.51959">
        <ele>251.52</ele>
        <time>2017-03-12T10:34:28Z</time>
      </trkpt>
      <trkpt lat="50.25793" lon="4.51967">
        <ele>251.52</ele>
        <time>2017-03-12T10:34:32Z</time>
      </trkpt>
      <trkpt lat="50.25795" lon="4.51997">
        <ele>251.52</ele>
        <time>2017-03-12T10:34:46Z</time>
      </trkpt>
      <trkpt lat="50.25801" lon="4.52022">
        <ele>252</ele>
        <time>2017-03-12T10:35:01Z</time>
      </trkpt>
      <trkpt lat="50.25807" lon="4.52054">
        <ele>252</ele>
        <time>2017-03-12T10:35:17Z</time>
      </trkpt>
      <trkpt lat="50.25813" lon="4.52083">
        <ele>252.48</ele>
        <time>2017-03-12T10:35:32Z</time>
      </trkpt>
      <trkpt lat="50.25819" lon="4.52109">
        <ele>252.48</ele>
        <time>2017-03-12T10:35:47Z</time>
      </trkpt>
      <trkpt lat="50.25824" lon="4.52133">
        <ele>252.96</ele>
        <time>2017-03-12T10:36:00Z</time>
      </trkpt>
      <trkpt lat="50.25829" lon="4.52161">
        <ele>253.44</ele>
        <time>2017-03-12T10:36:15Z</time>
      </trkpt>
      <trkpt lat="50.2583" lon="4.52166">
        <ele>253.44</ele>
        <time>2017-03-12T10:36:18Z</time>
      </trkpt>
      <trkpt lat="50.25836" lon="4.52194">
        <ele>253.93</ele>
        <time>2017-03-12T10:36:34Z</time>
      </trkpt>
      <trkpt lat="50.25841" lon="4.52225">
        <ele>254.41</ele>
        <time>2017-03-12T10:36:51Z</time>
      </trkpt>
      <trkpt lat="50.25845" lon="4.52233">
        <ele>254.41</ele>
        <time>2017-03-12T10:37:00Z</time>
      </trkpt>
      <trkpt lat="50.25848" lon="4.52234">
        <ele>253.93</ele>
        <time>2017-03-12T10:37:02Z</time>
      </trkpt>
      <trkpt lat="50.25864" lon="4.52214">
        <ele>252.96</ele>
        <time>2017-03-12T10:37:17Z</time>
      </trkpt>
      <trkpt lat="50.25865" lon="4.52213">
        <ele>252.96</ele>
        <time>2017-03-12T10:37:18Z</time>
      </trkpt>
      <trkpt lat="50.25876" lon="4.52193">
        <ele>250.08</ele>
        <time>2017-03-12T10:37:34Z</time>
      </trkpt>
      <trkpt lat="50.25893" lon="4.52172">
        <ele>249.12</ele>
        <time>2017-03-12T10:37:52Z</time>
      </trkpt>
      <trkpt lat="50.25912" lon="4.52173">
        <ele>249.12</ele>
        <time>2017-03-12T10:38:09Z</time>
      </trkpt>
      <trkpt lat="50.25931" lon="4.52177">
        <ele>249.12</ele>
        <time>2017-03-12T10:38:25Z</time>
      </trkpt>
      <trkpt lat="50.25951" lon="4.52183">
        <ele>249.6</ele>
        <time>2017-03-12T10:38:43Z</time>
      </trkpt>
      <trkpt lat="50.25969" lon="4.52187">
        <ele>251.52</ele>
        <time>2017-03-12T10:38:59Z</time>
      </trkpt>
      <trkpt lat="50.25987" lon="4.52176">
        <ele>253.93</ele>
        <time>2017-03-12T10:39:16Z</time>
      </trkpt>
      <trkpt lat="50.25999" lon="4.52165">
        <ele>256.81</ele>
        <time>2017-03-12T10:39:29Z</time>
      </trkpt>
      <trkpt lat="50.26015" lon="4.52159">
        <ele>257.77</ele>
        <time>2017-03-12T10:39:44Z</time>
      </trkpt>
      <trkpt lat="50.26023" lon="4.52159">
        <ele>258.25</ele>
        <time>2017-03-12T10:39:57Z</time>
      </trkpt>
      <trkpt lat="50.26039" lon="4.52151">
        <ele>258.25</ele>
        <time>2017-03-12T10:40:14Z</time>
      </trkpt>
      <trkpt lat="50.26063" lon="4.52142">
        <ele>258.25</ele>
        <time>2017-03-12T10:40:33Z</time>
      </trkpt>
      <trkpt lat="50.26075" lon="4.52136">
        <ele>257.29</ele>
        <time>2017-03-12T10:40:45Z</time>
      </trkpt>
      <trkpt lat="50.26093" lon="4.52161">
        <ele>257.29</ele>
        <time>2017-03-12T10:41:01Z</time>
      </trkpt>
      <trkpt lat="50.26099" lon="4.52185">
        <ele>257.29</ele>
        <time>2017-03-12T10:41:15Z</time>
      </trkpt>
      <trkpt lat="50.26107" lon="4.52213">
        <ele>258.25</ele>
        <time>2017-03-12T10:41:31Z</time>
      </trkpt>
      <trkpt lat="50.26115" lon="4.52245">
        <ele>258.25</ele>
        <time>2017-03-12T10:41:48Z</time>
      </trkpt>
      <trkpt lat="50.2612" lon="4.52269">
        <ele>258.73</ele>
        <time>2017-03-12T10:42:02Z</time>
      </trkpt>
      <trkpt lat="50.26123" lon="4.5228">
        <ele>259.21</ele>
        <time>2017-03-12T10:42:08Z</time>
      </trkpt>
      <trkpt lat="50.26133" lon="4.52304">
        <ele>259.21</ele>
        <time>2017-03-12T10:42:24Z</time>
      </trkpt>
      <trkpt lat="50.26142" lon="4.52329">
        <ele>260.17</ele>
        <time>2017-03-12T10:42:38Z</time>
      </trkpt>
      <trkpt lat="50.26149" lon="4.52355">
        <ele>259.69</ele>
        <time>2017-03-12T10:42:53Z</time>
      </trkpt>
      <trkpt lat="50.26159" lon="4.52385">
        <ele>261.14</ele>
        <time>2017-03-12T10:43:09Z</time>
      </trkpt>
      <trkpt lat="50.26166" lon="4.52413">
        <ele>261.62</ele>
        <time>2017-03-12T10:43:25Z</time>
      </trkpt>
      <trkpt lat="50.26173" lon="4.52426">
        <ele>262.1</ele>
        <time>2017-03-12T10:43:37Z</time>
      </trkpt>
      <trkpt lat="50.26178" lon="4.52444">
        <ele>262.1</ele>
        <time>2017-03-12T10:43:49Z</time>
      </trkpt>
      <trkpt lat="50.2618" lon="4.52454">
        <ele>262.58</ele>
        <time>2017-03-12T10:43:54Z</time>
      </trkpt>
      <trkpt lat="50.26189" lon="4.52487">
        <ele>262.58</ele>
        <time>2017-03-12T10:44:11Z</time>
      </trkpt>
      <trkpt lat="50.26194" lon="4.52514">
        <ele>262.58</ele>
        <time>2017-03-12T10:44:25Z</time>
      </trkpt>
      <trkpt lat="50.262" lon="4.52548">
        <ele>264.02</ele>
        <time>2017-03-12T10:44:42Z</time>
      </trkpt>
      <trkpt lat="50.26208" lon="4.52577">
        <ele>264.02</ele>
        <time>2017-03-12T10:44:58Z</time>
      </trkpt>
      <trkpt lat="50.26209" lon="4.52583">
        <ele>264.02</ele>
        <time>2017-03-12T10:45:01Z</time>
      </trkpt>
      <trkpt lat="50.26216" lon="4.52616">
        <ele>264.02</ele>
        <time>2017-03-12T10:45:18Z</time>
      </trkpt>
      <trkpt lat="50.26224" lon="4.52645">
        <ele>263.54</ele>
        <time>2017-03-12T10:45:34Z</time>
      </trkpt>
      <trkpt lat="50.26232" lon="4.52673">
        <ele>263.54</ele>
        <time>2017-03-12T10:45:51Z</time>
      </trkpt>
      <trkpt lat="50.26239" lon="4.52702">
        <ele>262.58</ele>
        <time>2017-03-12T10:46:08Z</time>
      </trkpt>
      <trkpt lat="50.26244" lon="4.52734">
        <ele>262.58</ele>
        <time>2017-03-12T10:46:24Z</time>
      </trkpt>
      <trkpt lat="50.2625" lon="4.52762">
        <ele>262.1</ele>
        <time>2017-03-12T10:46:40Z</time>
      </trkpt>
      <trkpt lat="50.26258" lon="4.5279">
        <ele>262.1</ele>
        <time>2017-03-12T10:46:56Z</time>
      </trkpt>
      <trkpt lat="50.26266" lon="4.52816">
        <ele>262.1</ele>
        <time>2017-03-12T10:47:12Z</time>
      </trkpt>
      <trkpt lat="50.26272" lon="4.52841">
        <ele>262.1</ele>
        <time>2017-03-12T10:47:26Z</time>
      </trkpt>
      <trkpt lat="50.26277" lon="4.52867">
        <ele>263.06</ele>
        <time>2017-03-12T10:47:42Z</time>
      </trkpt>
      <trkpt lat="50.26282" lon="4.52896">
        <ele>263.06</ele>
        <time>2017-03-12T10:47:57Z</time>
      </trkpt>
      <trkpt lat="50.26284" lon="4.52933">
        <ele>263.06</ele>
        <time>2017-03-12T10:48:15Z</time>
      </trkpt>
      <trkpt lat="50.26284" lon="4.52949">
        <ele>259.21</ele>
        <time>2017-03-12T10:48:22Z</time>
      </trkpt>
      <trkpt lat="50.26284" lon="4.52952">
        <ele>264.98</ele>
        <time>2017-03-12T10:48:23Z</time>
      </trkpt>
      <trkpt lat="50.26285" lon="4.52981">
        <ele>261.62</ele>
        <time>2017-03-12T10:48:39Z</time>
      </trkpt>
      <trkpt lat="50.26284" lon="4.53018">
        <ele>261.62</ele>
        <time>2017-03-12T10:48:58Z</time>
      </trkpt>
      <trkpt lat="50.26283" lon="4.53053">
        <ele>261.14</ele>
        <time>2017-03-12T10:49:15Z</time>
      </trkpt>
      <trkpt lat="50.26283" lon="4.53086">
        <ele>260.17</ele>
        <time>2017-03-12T10:49:31Z</time>
      </trkpt>
      <trkpt lat="50.26282" lon="4.53121">
        <ele>260.17</ele>
        <time>2017-03-12T10:49:49Z</time>
      </trkpt>
      <trkpt lat="50.2628" lon="4.53153">
        <ele>259.69</ele>
        <time>2017-03-12T10:50:06Z</time>
      </trkpt>
      <trkpt lat="50.2628" lon="4.53178">
        <ele>259.69</ele>
        <time>2017-03-12T10:50:19Z</time>
      </trkpt>
      <trkpt lat="50.26278" lon="4.53207">
        <ele>259.21</ele>
        <time>2017-03-12T10:50:36Z</time>
      </trkpt>
      <trkpt lat="50.26277" lon="4.53222">
        <ele>259.21</ele>
        <time>2017-03-12T10:50:45Z</time>
      </trkpt>
      <trkpt lat="50.26274" lon="4.53229">
        <ele>259.21</ele>
        <time>2017-03-12T10:50:49Z</time>
      </trkpt>
      <trkpt lat="50.26271" lon="4.53256">
        <ele>258.73</ele>
        <time>2017-03-12T10:51:03Z</time>
      </trkpt>
      <trkpt lat="50.2627" lon="4.5329">
        <ele>258.25</ele>
        <time>2017-03-12T10:51:21Z</time>
      </trkpt>
      <trkpt lat="50.26265" lon="4.53304">
        <ele>258.25</ele>
        <time>2017-03-12T10:51:28Z</time>
      </trkpt>
      <trkpt lat="50.26261" lon="4.53326">
        <ele>257.77</ele>
        <time>2017-03-12T10:51:39Z</time>
      </trkpt>
      <trkpt lat="50.26243" lon="4.53316">
        <ele>256.33</ele>
        <time>2017-03-12T10:51:56Z</time>
      </trkpt>
      <trkpt lat="50.2624" lon="4.53315">
        <ele>256.33</ele>
        <time>2017-03-12T10:51:59Z</time>
      </trkpt>
      <trkpt lat="50.26224" lon="4.53314">
        <ele>254.89</ele>
        <time>2017-03-12T10:52:14Z</time>
      </trkpt>
      <trkpt lat="50.26217" lon="4.53315">
        <ele>254.41</ele>
        <time>2017-03-12T10:52:19Z</time>
      </trkpt>
      <trkpt lat="50.26195" lon="4.53318">
        <ele>253.44</ele>
        <time>2017-03-12T10:52:36Z</time>
      </trkpt>
      <trkpt lat="50.26175" lon="4.53323">
        <ele>253.44</ele>
        <time>2017-03-12T10:52:52Z</time>
      </trkpt>
      <trkpt lat="50.2615" lon="4.53328">
        <ele>252.96</ele>
        <time>2017-03-12T10:53:11Z</time>
      </trkpt>
      <trkpt lat="50.26125" lon="4.53332">
        <ele>254.41</ele>
        <time>2017-03-12T10:53:29Z</time>
      </trkpt>
      <trkpt lat="50.26102" lon="4.53337">
        <ele>253.93</ele>
        <time>2017-03-12T10:53:47Z</time>
      </trkpt>
      <trkpt lat="50.26082" lon="4.53341">
        <ele>254.41</ele>
        <time>2017-03-12T10:54:03Z</time>
      </trkpt>
      <trkpt lat="50.26063" lon="4.53345">
        <ele>254.41</ele>
        <time>2017-03-12T10:54:18Z</time>
      </trkpt>
      <trkpt lat="50.26047" lon="4.5335">
        <ele>254.89</ele>
        <time>2017-03-12T10:54:31Z</time>
      </trkpt>
      <trkpt lat="50.2603" lon="4.53352">
        <ele>255.37</ele>
        <time>2017-03-12T10:54:43Z</time>
      </trkpt>
      <trkpt lat="50.26009" lon="4.53354">
        <ele>255.37</ele>
        <time>2017-03-12T10:54:59Z</time>
      </trkpt>
      <trkpt lat="50.25989" lon="4.53356">
        <ele>255.37</ele>
        <time>2017-03-12T10:55:16Z</time>
      </trkpt>
      <trkpt lat="50.25972" lon="4.53357">
        <ele>255.37</ele>
        <time>2017-03-12T10:55:30Z</time>
      </trkpt>
      <trkpt lat="50.25952" lon="4.53355">
        <ele>255.85</ele>
        <time>2017-03-12T10:55:46Z</time>
      </trkpt>
      <trkpt lat="50.25933" lon="4.53351">
        <ele>255.85</ele>
        <time>2017-03-12T10:56:01Z</time>
      </trkpt>
      <trkpt lat="50.25914" lon="4.53344">
        <ele>256.33</ele>
        <time>2017-03-12T10:56:16Z</time>
      </trkpt>
      <trkpt lat="50.25895" lon="4.53333">
        <ele>256.33</ele>
        <time>2017-03-12T10:56:32Z</time>
      </trkpt>
      <trkpt lat="50.2588" lon="4.53325">
        <ele>256.33</ele>
        <time>2017-03-12T10:56:46Z</time>
      </trkpt>
      <trkpt lat="50.25868" lon="4.5332">
        <ele>256.81</ele>
        <time>2017-03-12T10:56:56Z</time>
      </trkpt>
      <trkpt lat="50.25846" lon="4.5331">
        <ele>256.81</ele>
        <time>2017-03-12T10:57:13Z</time>
      </trkpt>
      <trkpt lat="50.25828" lon="4.533">
        <ele>257.29</ele>
        <time>2017-03-12T10:57:28Z</time>
      </trkpt>
      <trkpt lat="50.25808" lon="4.53291">
        <ele>257.29</ele>
        <time>2017-03-12T10:57:44Z</time>
      </trkpt>
      <trkpt lat="50.25787" lon="4.53281">
        <ele>257.77</ele>
        <time>2017-03-12T10:58:00Z</time>
      </trkpt>
      <trkpt lat="50.25778" lon="4.53278">
        <ele>257.77</ele>
        <time>2017-03-12T10:58:08Z</time>
      </trkpt>
      <trkpt lat="50.2577" lon="4.53286">
        <ele>258.25</ele>
        <time>2017-03-12T10:58:21Z</time>
      </trkpt>
      <trkpt lat="50.25773" lon="4.53293">
        <ele>258.73</ele>
        <time>2017-03-12T10:58:52Z</time>
      </trkpt>
      <trkpt lat="50.25772" lon="4.53289">
        <ele>258.73</ele>
        <time>2017-03-12T10:58:54Z</time>
      </trkpt>
      <trkpt lat="50.25756" lon="4.5327">
        <ele>260.17</ele>
        <time>2017-03-12T10:59:08Z</time>
      </trkpt>
      <trkpt lat="50.25731" lon="4.53259">
        <ele>260.17</ele>
        <time>2017-03-12T10:59:23Z</time>
      </trkpt>
      <trkpt lat="50.25693" lon="4.53254">
        <ele>260.65</ele>
        <time>2017-03-12T10:59:43Z</time>
      </trkpt>
      <trkpt lat="50.25669" lon="4.53265">
        <ele>261.14</ele>
        <time>2017-03-12T11:00:00Z</time>
      </trkpt>
      <trkpt lat="50.25649" lon="4.53273">
        <ele>261.14</ele>
        <time>2017-03-12T11:00:13Z</time>
      </trkpt>
      <trkpt lat="50.25635" lon="4.53287">
        <ele>262.1</ele>
        <time>2017-03-12T11:00:24Z</time>
      </trkpt>
      <trkpt lat="50.25622" lon="4.5331">
        <ele>262.58</ele>
        <time>2017-03-12T11:00:40Z</time>
      </trkpt>
      <trkpt lat="50.25616" lon="4.53318">
        <ele>263.06</ele>
        <time>2017-03-12T11:00:54Z</time>
      </trkpt>
      <trkpt lat="50.25612" lon="4.53328">
        <ele>263.06</ele>
        <time>2017-03-12T11:01:25Z</time>
      </trkpt>
      <trkpt lat="50.25614" lon="4.53327">
        <ele>263.06</ele>
        <time>2017-03-12T11:01:38Z</time>
      </trkpt>
      <trkpt lat="50.25614" lon="4.53332">
        <ele>263.54</ele>
        <time>2017-03-12T11:01:59Z</time>
      </trkpt>
      <trkpt lat="50.2561" lon="4.53365">
        <ele>263.54</ele>
        <time>2017-03-12T11:02:18Z</time>
      </trkpt>
      <trkpt lat="50.25603" lon="4.53404">
        <ele>263.54</ele>
        <time>2017-03-12T11:02:35Z</time>
      </trkpt>
      <trkpt lat="50.25602" lon="4.53414">
        <ele>263.54</ele>
        <time>2017-03-12T11:02:41Z</time>
      </trkpt>
      <trkpt lat="50.25598" lon="4.53445">
        <ele>264.02</ele>
        <time>2017-03-12T11:02:58Z</time>
      </trkpt>
      <trkpt lat="50.25595" lon="4.53486">
        <ele>264.98</ele>
        <time>2017-03-12T11:03:17Z</time>
      </trkpt>
      <trkpt lat="50.25593" lon="4.5351">
        <ele>264.98</ele>
        <time>2017-03-12T11:03:31Z</time>
      </trkpt>
      <trkpt lat="50.25589" lon="4.53546">
        <ele>265.94</ele>
        <time>2017-03-12T11:03:49Z</time>
      </trkpt>
      <trkpt lat="50.25585" lon="4.5358">
        <ele>266.42</ele>
        <time>2017-03-12T11:04:06Z</time>
      </trkpt>
      <trkpt lat="50.25581" lon="4.53611">
        <ele>266.42</ele>
        <time>2017-03-12T11:04:22Z</time>
      </trkpt>
      <trkpt lat="50.25577" lon="4.53647">
        <ele>266.42</ele>
        <time>2017-03-12T11:04:41Z</time>
      </trkpt>
      <trkpt lat="50.25572" lon="4.53675">
        <ele>266.42</ele>
        <time>2017-03-12T11:04:56Z</time>
      </trkpt>
      <trkpt lat="50.25569" lon="4.53704">
        <ele>266.9</ele>
        <time>2017-03-12T11:05:11Z</time>
      </trkpt>
      <trkpt lat="50.25565" lon="4.53741">
        <ele>266.9</ele>
        <time>2017-03-12T11:05:27Z</time>
      </trkpt>
      <trkpt lat="50.25564" lon="4.53777">
        <ele>266.9</ele>
        <time>2017-03-12T11:05:45Z</time>
      </trkpt>
      <trkpt lat="50.25565" lon="4.53804">
        <ele>267.38</ele>
        <time>2017-03-12T11:06:00Z</time>
      </trkpt>
      <trkpt lat="50.25565" lon="4.53843">
        <ele>267.38</ele>
        <time>2017-03-12T11:06:16Z</time>
      </trkpt>
      <trkpt lat="50.25567" lon="4.53867">
        <ele>267.86</ele>
        <time>2017-03-12T11:06:31Z</time>
      </trkpt>
      <trkpt lat="50.25568" lon="4.53894">
        <ele>267.86</ele>
        <time>2017-03-12T11:06:45Z</time>
      </trkpt>
      <trkpt lat="50.25568" lon="4.53921">
        <ele>267.86</ele>
        <time>2017-03-12T11:06:59Z</time>
      </trkpt>
      <trkpt lat="50.25569" lon="4.53951">
        <ele>267.86</ele>
        <time>2017-03-12T11:07:14Z</time>
      </trkpt>
      <trkpt lat="50.25571" lon="4.53986">
        <ele>267.86</ele>
        <time>2017-03-12T11:07:31Z</time>
      </trkpt>
      <trkpt lat="50.25571" lon="4.54013">
        <ele>267.86</ele>
        <time>2017-03-12T11:07:45Z</time>
      </trkpt>
      <trkpt lat="50.25572" lon="4.54042">
        <ele>267.86</ele>
        <time>2017-03-12T11:08:02Z</time>
      </trkpt>
      <trkpt lat="50.25575" lon="4.54062">
        <ele>267.86</ele>
        <time>2017-03-12T11:08:12Z</time>
      </trkpt>
      <trkpt lat="50.25573" lon="4.54097">
        <ele>266.42</ele>
        <time>2017-03-12T11:08:29Z</time>
      </trkpt>
      <trkpt lat="50.25571" lon="4.54131">
        <ele>266.42</ele>
        <time>2017-03-12T11:08:46Z</time>
      </trkpt>
      <trkpt lat="50.25577" lon="4.54162">
        <ele>265.94</ele>
        <time>2017-03-12T11:09:01Z</time>
      </trkpt>
      <trkpt lat="50.25578" lon="4.54164">
        <ele>265.94</ele>
        <time>2017-03-12T11:09:02Z</time>
      </trkpt>
      <trkpt lat="50.25592" lon="4.54178">
        <ele>265.46</ele>
        <time>2017-03-12T11:09:16Z</time>
      </trkpt>
      <trkpt lat="50.25607" lon="4.5419">
        <ele>264.98</ele>
        <time>2017-03-12T11:09:31Z</time>
      </trkpt>
      <trkpt lat="50.25629" lon="4.54204">
        <ele>264.5</ele>
        <time>2017-03-12T11:09:48Z</time>
      </trkpt>
      <trkpt lat="50.25649" lon="4.54216">
        <ele>264.5</ele>
        <time>2017-03-12T11:10:05Z</time>
      </trkpt>
      <trkpt lat="50.25651" lon="4.54217">
        <ele>264.5</ele>
        <time>2017-03-12T11:10:07Z</time>
      </trkpt>
      <trkpt lat="50.25673" lon="4.54232">
        <ele>264.5</ele>
        <time>2017-03-12T11:10:25Z</time>
      </trkpt>
      <trkpt lat="50.25688" lon="4.54243">
        <ele>264.02</ele>
        <time>2017-03-12T11:10:39Z</time>
      </trkpt>
      <trkpt lat="50.25706" lon="4.54256">
        <ele>263.54</ele>
        <time>2017-03-12T11:10:55Z</time>
      </trkpt>
      <trkpt lat="50.25725" lon="4.54274">
        <ele>262.58</ele>
        <time>2017-03-12T11:11:13Z</time>
      </trkpt>
      <trkpt lat="50.25749" lon="4.54293">
        <ele>263.06</ele>
        <time>2017-03-12T11:11:33Z</time>
      </trkpt>
      <trkpt lat="50.25766" lon="4.54305">
        <ele>262.58</ele>
        <time>2017-03-12T11:11:47Z</time>
      </trkpt>
      <trkpt lat="50.25787" lon="4.54321">
        <ele>262.58</ele>
        <time>2017-03-12T11:12:05Z</time>
      </trkpt>
      <trkpt lat="50.25809" lon="4.54335">
        <ele>262.58</ele>
        <time>2017-03-12T11:12:23Z</time>
      </trkpt>
      <trkpt lat="50.25827" lon="4.54345">
        <ele>262.58</ele>
        <time>2017-03-12T11:12:38Z</time>
      </trkpt>
      <trkpt lat="50.25844" lon="4.54353">
        <ele>263.54</ele>
        <time>2017-03-12T11:12:52Z</time>
      </trkpt>
      <trkpt lat="50.25853" lon="4.54359">
        <ele>263.54</ele>
        <time>2017-03-12T11:13:01Z</time>
      </trkpt>
      <trkpt lat="50.25868" lon="4.54373">
        <ele>263.54</ele>
        <time>2017-03-12T11:13:14Z</time>
      </trkpt>
      <trkpt lat="50.25882" lon="4.54386">
        <ele>264.02</ele>
        <time>2017-03-12T11:13:27Z</time>
      </trkpt>
      <trkpt lat="50.25896" lon="4.54397">
        <ele>264.02</ele>
        <time>2017-03-12T11:13:39Z</time>
      </trkpt>
      <trkpt lat="50.25903" lon="4.54399">
        <ele>264.02</ele>
        <time>2017-03-12T11:13:44Z</time>
      </trkpt>
      <trkpt lat="50.25917" lon="4.5441">
        <ele>264.5</ele>
        <time>2017-03-12T11:13:58Z</time>
      </trkpt>
      <trkpt lat="50.25918" lon="4.5441">
        <ele>264.5</ele>
        <time>2017-03-12T11:13:59Z</time>
      </trkpt>
      <trkpt lat="50.25933" lon="4.54422">
        <ele>264.5</ele>
        <time>2017-03-12T11:14:14Z</time>
      </trkpt>
      <trkpt lat="50.25955" lon="4.54439">
        <ele>264.5</ele>
        <time>2017-03-12T11:14:32Z</time>
      </trkpt>
      <trkpt lat="50.25966" lon="4.54446">
        <ele>264.5</ele>
        <time>2017-03-12T11:14:41Z</time>
      </trkpt>
      <trkpt lat="50.25987" lon="4.54461">
        <ele>264.5</ele>
        <time>2017-03-12T11:14:57Z</time>
      </trkpt>
      <trkpt lat="50.26002" lon="4.54475">
        <ele>264.5</ele>
        <time>2017-03-12T11:15:12Z</time>
      </trkpt>
      <trkpt lat="50.26011" lon="4.54475">
        <ele>264.5</ele>
        <time>2017-03-12T11:15:19Z</time>
      </trkpt>
      <trkpt lat="50.26021" lon="4.54469">
        <ele>264.98</ele>
        <time>2017-03-12T11:15:30Z</time>
      </trkpt>
      <trkpt lat="50.26024" lon="4.54455">
        <ele>264.98</ele>
        <time>2017-03-12T11:15:44Z</time>
      </trkpt>
      <trkpt lat="50.26025" lon="4.54456">
        <ele>264.98</ele>
        <time>2017-03-12T11:15:46Z</time>
      </trkpt>
      <trkpt lat="50.26024" lon="4.5447">
        <ele>264.98</ele>
        <time>2017-03-12T11:15:58Z</time>
      </trkpt>
      <trkpt lat="50.26024" lon="4.54477">
        <ele>264.98</ele>
        <time>2017-03-12T11:16:04Z</time>
      </trkpt>
      <trkpt lat="50.26026" lon="4.54466">
        <ele>264.98</ele>
        <time>2017-03-12T11:16:09Z</time>
      </trkpt>
      <trkpt lat="50.26038" lon="4.54448">
        <ele>264.98</ele>
        <time>2017-03-12T11:16:25Z</time>
      </trkpt>
      <trkpt lat="50.26054" lon="4.54447">
        <ele>263.54</ele>
        <time>2017-03-12T11:16:40Z</time>
      </trkpt>
      <trkpt lat="50.26071" lon="4.5445">
        <ele>263.54</ele>
        <time>2017-03-12T11:16:55Z</time>
      </trkpt>
      <trkpt lat="50.26093" lon="4.54459">
        <ele>263.54</ele>
        <time>2017-03-12T11:17:08Z</time>
      </trkpt>
      <trkpt lat="50.26109" lon="4.54469">
        <ele>263.54</ele>
        <time>2017-03-12T11:17:22Z</time>
      </trkpt>
      <trkpt lat="50.2611" lon="4.5447">
        <ele>263.54</ele>
        <time>2017-03-12T11:17:23Z</time>
      </trkpt>
      <trkpt lat="50.26127" lon="4.54482">
        <ele>264.02</ele>
        <time>2017-03-12T11:17:40Z</time>
      </trkpt>
      <trkpt lat="50.26125" lon="4.54484">
        <ele>264.02</ele>
        <time>2017-03-12T11:17:56Z</time>
      </trkpt>
      <trkpt lat="50.26121" lon="4.54489">
        <ele>264.02</ele>
        <time>2017-03-12T11:18:19Z</time>
      </trkpt>
      <trkpt lat="50.26121" lon="4.54491">
        <ele>265.46</ele>
        <time>2017-03-12T11:18:42Z</time>
      </trkpt>
      <trkpt lat="50.26121" lon="4.54492">
        <ele>264.02</ele>
        <time>2017-03-12T11:18:44Z</time>
      </trkpt>
      <trkpt lat="50.26126" lon="4.54495">
        <ele>264.02</ele>
        <time>2017-03-12T11:19:09Z</time>
      </trkpt>
      <trkpt lat="50.26123" lon="4.545">
        <ele>264.02</ele>
        <time>2017-03-12T11:19:42Z</time>
      </trkpt>
      <trkpt lat="50.26123" lon="4.54502">
        <ele>268.35</ele>
        <time>2017-03-12T11:20:05Z</time>
      </trkpt>
      <trkpt lat="50.26122" lon="4.54502">
        <ele>264.98</ele>
        <time>2017-03-12T11:20:06Z</time>
      </trkpt>
      <trkpt lat="50.26123" lon="4.54501">
        <ele>265.94</ele>
        <time>2017-03-12T11:20:24Z</time>
      </trkpt>
      <trkpt lat="50.26132" lon="4.54501">
        <ele>266.42</ele>
        <time>2017-03-12T11:20:42Z</time>
      </trkpt>
      <trkpt lat="50.26145" lon="4.54513">
        <ele>266.42</ele>
        <time>2017-03-12T11:20:57Z</time>
      </trkpt>
      <trkpt lat="50.26157" lon="4.54528">
        <ele>266.42</ele>
        <time>2017-03-12T11:21:11Z</time>
      </trkpt>
      <trkpt lat="50.2617" lon="4.54551">
        <ele>266.9</ele>
        <time>2017-03-12T11:21:27Z</time>
      </trkpt>
      <trkpt lat="50.26179" lon="4.54572">
        <ele>266.9</ele>
        <time>2017-03-12T11:21:41Z</time>
      </trkpt>
      <trkpt lat="50.26186" lon="4.54587">
        <ele>266.9</ele>
        <time>2017-03-12T11:21:50Z</time>
      </trkpt>
      <trkpt lat="50.26196" lon="4.54611">
        <ele>266.9</ele>
        <time>2017-03-12T11:22:06Z</time>
      </trkpt>
      <trkpt lat="50.26208" lon="4.54637">
        <ele>267.38</ele>
        <time>2017-03-12T11:22:22Z</time>
      </trkpt>
      <trkpt lat="50.26214" lon="4.54653">
        <ele>267.86</ele>
        <time>2017-03-12T11:22:30Z</time>
      </trkpt>
      <trkpt lat="50.26222" lon="4.54672">
        <ele>267.86</ele>
        <time>2017-03-12T11:22:44Z</time>
      </trkpt>
      <trkpt lat="50.26232" lon="4.54691">
        <ele>268.35</ele>
        <time>2017-03-12T11:22:57Z</time>
      </trkpt>
      <trkpt lat="50.26242" lon="4.54716">
        <ele>268.83</ele>
        <time>2017-03-12T11:23:13Z</time>
      </trkpt>
      <trkpt lat="50.26253" lon="4.54716">
        <ele>268.83</ele>
        <time>2017-03-12T11:23:29Z</time>
      </trkpt>
      <trkpt lat="50.26255" lon="4.54714">
        <ele>268.83</ele>
        <time>2017-03-12T11:23:32Z</time>
      </trkpt>
      <trkpt lat="50.26259" lon="4.54712">
        <ele>268.83</ele>
        <time>2017-03-12T11:23:34Z</time>
      </trkpt>
      <trkpt lat="50.26274" lon="4.54701">
        <ele>268.35</ele>
        <time>2017-03-12T11:23:48Z</time>
      </trkpt>
      <trkpt lat="50.26286" lon="4.54685">
        <ele>268.35</ele>
        <time>2017-03-12T11:24:03Z</time>
      </trkpt>
      <trkpt lat="50.26308" lon="4.54671">
        <ele>268.35</ele>
        <time>2017-03-12T11:24:19Z</time>
      </trkpt>
      <trkpt lat="50.26324" lon="4.54657">
        <ele>268.35</ele>
        <time>2017-03-12T11:24:33Z</time>
      </trkpt>
      <trkpt lat="50.26337" lon="4.54644">
        <ele>268.35</ele>
        <time>2017-03-12T11:24:50Z</time>
      </trkpt>
      <trkpt lat="50.26354" lon="4.54625">
        <ele>268.35</ele>
        <time>2017-03-12T11:25:09Z</time>
      </trkpt>
      <trkpt lat="50.26376" lon="4.54608">
        <ele>268.35</ele>
        <time>2017-03-12T11:25:25Z</time>
      </trkpt>
      <trkpt lat="50.26394" lon="4.54594">
        <ele>268.83</ele>
        <time>2017-03-12T11:25:40Z</time>
      </trkpt>
      <trkpt lat="50.26416" lon="4.54586">
        <ele>268.83</ele>
        <time>2017-03-12T11:25:56Z</time>
      </trkpt>
      <trkpt lat="50.26428" lon="4.54578">
        <ele>268.83</ele>
        <time>2017-03-12T11:26:09Z</time>
      </trkpt>
      <trkpt lat="50.26432" lon="4.54572">
        <ele>268.83</ele>
        <time>2017-03-12T11:26:15Z</time>
      </trkpt>
      <trkpt lat="50.26444" lon="4.54555">
        <ele>268.83</ele>
        <time>2017-03-12T11:26:29Z</time>
      </trkpt>
      <trkpt lat="50.26457" lon="4.54533">
        <ele>268.83</ele>
        <time>2017-03-12T11:26:43Z</time>
      </trkpt>
      <trkpt lat="50.26467" lon="4.5452">
        <ele>268.35</ele>
        <time>2017-03-12T11:26:59Z</time>
      </trkpt>
      <trkpt lat="50.26479" lon="4.54501">
        <ele>267.86</ele>
        <time>2017-03-12T11:27:15Z</time>
      </trkpt>
      <trkpt lat="50.26497" lon="4.54486">
        <ele>267.38</ele>
        <time>2017-03-12T11:27:29Z</time>
      </trkpt>
      <trkpt lat="50.26508" lon="4.5447">
        <ele>267.38</ele>
        <time>2017-03-12T11:27:46Z</time>
      </trkpt>
      <trkpt lat="50.26515" lon="4.54458">
        <ele>268.35</ele>
        <time>2017-03-12T11:28:01Z</time>
      </trkpt>
      <trkpt lat="50.26523" lon="4.54447">
        <ele>268.35</ele>
        <time>2017-03-12T11:28:12Z</time>
      </trkpt>
      <trkpt lat="50.26527" lon="4.54444">
        <ele>268.35</ele>
        <time>2017-03-12T11:28:16Z</time>
      </trkpt>
      <trkpt lat="50.26545" lon="4.54422">
        <ele>267.86</ele>
        <time>2017-03-12T11:28:34Z</time>
      </trkpt>
      <trkpt lat="50.26558" lon="4.54405">
        <ele>267.86</ele>
        <time>2017-03-12T11:28:48Z</time>
      </trkpt>
      <trkpt lat="50.26571" lon="4.54389">
        <ele>267.86</ele>
        <time>2017-03-12T11:29:02Z</time>
      </trkpt>
      <trkpt lat="50.26579" lon="4.54365">
        <ele>267.38</ele>
        <time>2017-03-12T11:29:17Z</time>
      </trkpt>
      <trkpt lat="50.26594" lon="4.5434">
        <ele>267.38</ele>
        <time>2017-03-12T11:29:33Z</time>
      </trkpt>
      <trkpt lat="50.26608" lon="4.54324">
        <ele>267.38</ele>
        <time>2017-03-12T11:29:48Z</time>
      </trkpt>
      <trkpt lat="50.26631" lon="4.54311">
        <ele>266.9</ele>
        <time>2017-03-12T11:30:06Z</time>
      </trkpt>
      <trkpt lat="50.26636" lon="4.54308">
        <ele>266.9</ele>
        <time>2017-03-12T11:30:10Z</time>
      </trkpt>
      <trkpt lat="50.26655" lon="4.543">
        <ele>265.94</ele>
        <time>2017-03-12T11:30:25Z</time>
      </trkpt>
      <trkpt lat="50.26656" lon="4.54299">
        <ele>265.94</ele>
        <time>2017-03-12T11:30:26Z</time>
      </trkpt>
      <trkpt lat="50.26656" lon="4.54283">
        <ele>265.94</ele>
        <time>2017-03-12T11:30:39Z</time>
      </trkpt>
      <trkpt lat="50.26651" lon="4.54277">
        <ele>265.94</ele>
        <time>2017-03-12T11:30:45Z</time>
      </trkpt>
      <trkpt lat="50.26638" lon="4.54253">
        <ele>265.94</ele>
        <time>2017-03-12T11:30:59Z</time>
      </trkpt>
      <trkpt lat="50.26626" lon="4.54228">
        <ele>265.94</ele>
        <time>2017-03-12T11:31:14Z</time>
      </trkpt>
      <trkpt lat="50.26613" lon="4.54207">
        <ele>265.94</ele>
        <time>2017-03-12T11:31:29Z</time>
      </trkpt>
      <trkpt lat="50.26602" lon="4.54187">
        <ele>266.9</ele>
        <time>2017-03-12T11:31:43Z</time>
      </trkpt>
      <trkpt lat="50.26591" lon="4.5417">
        <ele>266.9</ele>
        <time>2017-03-12T11:31:55Z</time>
      </trkpt>
      <trkpt lat="50.26579" lon="4.54148">
        <ele>266.9</ele>
        <time>2017-03-12T11:32:09Z</time>
      </trkpt>
      <trkpt lat="50.26568" lon="4.54131">
        <ele>267.38</ele>
        <time>2017-03-12T11:32:23Z</time>
      </trkpt>
      <trkpt lat="50.26558" lon="4.54117">
        <ele>267.38</ele>
        <time>2017-03-12T11:32:35Z</time>
      </trkpt>
      <trkpt lat="50.26544" lon="4.54109">
        <ele>267.38</ele>
        <time>2017-03-12T11:32:49Z</time>
      </trkpt>
      <trkpt lat="50.26541" lon="4.54106">
        <ele>267.38</ele>
        <time>2017-03-12T11:32:52Z</time>
      </trkpt>
      <trkpt lat="50.2652" lon="4.54099">
        <ele>267.38</ele>
        <time>2017-03-12T11:33:09Z</time>
      </trkpt>
      <trkpt lat="50.265" lon="4.54091">
        <ele>267.38</ele>
        <time>2017-03-12T11:33:24Z</time>
      </trkpt>
      <trkpt lat="50.26488" lon="4.54088">
        <ele>265.94</ele>
        <time>2017-03-12T11:33:33Z</time>
      </trkpt>
      <trkpt lat="50.26465" lon="4.54074">
        <ele>265.94</ele>
        <time>2017-03-12T11:33:49Z</time>
      </trkpt>
      <trkpt lat="50.26446" lon="4.5407">
        <ele>265.94</ele>
        <time>2017-03-12T11:34:05Z</time>
      </trkpt>
      <trkpt lat="50.26427" lon="4.54059">
        <ele>264.98</ele>
        <time>2017-03-12T11:34:20Z</time>
      </trkpt>
      <trkpt lat="50.26411" lon="4.54043">
        <ele>264.98</ele>
        <time>2017-03-12T11:34:35Z</time>
      </trkpt>
      <trkpt lat="50.26406" lon="4.54037">
        <ele>264.98</ele>
        <time>2017-03-12T11:34:40Z</time>
      </trkpt>
      <trkpt lat="50.26392" lon="4.54012">
        <ele>264.5</ele>
        <time>2017-03-12T11:34:56Z</time>
      </trkpt>
      <trkpt lat="50.26387" lon="4.54002">
        <ele>264.5</ele>
        <time>2017-03-12T11:35:02Z</time>
      </trkpt>
      <trkpt lat="50.26375" lon="4.53986">
        <ele>264.02</ele>
        <time>2017-03-12T11:35:15Z</time>
      </trkpt>
      <trkpt lat="50.26363" lon="4.53962">
        <ele>264.02</ele>
        <time>2017-03-12T11:35:30Z</time>
      </trkpt>
      <trkpt lat="50.26359" lon="4.53942">
        <ele>263.06</ele>
        <time>2017-03-12T11:35:42Z</time>
      </trkpt>
      <trkpt lat="50.26359" lon="4.53937">
        <ele>263.06</ele>
        <time>2017-03-12T11:35:45Z</time>
      </trkpt>
      <trkpt lat="50.26364" lon="4.53931">
        <ele>262.58</ele>
        <time>2017-03-12T11:35:52Z</time>
      </trkpt>
      <trkpt lat="50.26378" lon="4.53918">
        <ele>263.54</ele>
        <time>2017-03-12T11:36:07Z</time>
      </trkpt>
      <trkpt lat="50.26394" lon="4.53904">
        <ele>264.02</ele>
        <time>2017-03-12T11:36:23Z</time>
      </trkpt>
      <trkpt lat="50.26406" lon="4.53894">
        <ele>264.02</ele>
        <time>2017-03-12T11:36:37Z</time>
      </trkpt>
      <trkpt lat="50.26407" lon="4.53892">
        <ele>264.5</ele>
        <time>2017-03-12T11:36:38Z</time>
      </trkpt>
      <trkpt lat="50.26419" lon="4.53878">
        <ele>264.5</ele>
        <time>2017-03-12T11:36:52Z</time>
      </trkpt>
      <trkpt lat="50.2642" lon="4.53875">
        <ele>264.5</ele>
        <time>2017-03-12T11:36:54Z</time>
      </trkpt>
      <trkpt lat="50.26422" lon="4.53873">
        <ele>264.5</ele>
        <time>2017-03-12T11:36:56Z</time>
      </trkpt>
      <trkpt lat="50.2644" lon="4.53856">
        <ele>264.02</ele>
        <time>2017-03-12T11:37:10Z</time>
      </trkpt>
      <trkpt lat="50.26444" lon="4.53852">
        <ele>264.02</ele>
        <time>2017-03-12T11:37:14Z</time>
      </trkpt>
      <trkpt lat="50.26462" lon="4.53834">
        <ele>264.5</ele>
        <time>2017-03-12T11:37:30Z</time>
      </trkpt>
      <trkpt lat="50.26475" lon="4.53819">
        <ele>264.5</ele>
        <time>2017-03-12T11:37:43Z</time>
      </trkpt>
      <trkpt lat="50.26489" lon="4.5381">
        <ele>264.98</ele>
        <time>2017-03-12T11:37:55Z</time>
      </trkpt>
      <trkpt lat="50.26506" lon="4.53795">
        <ele>264.98</ele>
        <time>2017-03-12T11:38:12Z</time>
      </trkpt>
      <trkpt lat="50.26518" lon="4.53779">
        <ele>265.46</ele>
        <time>2017-03-12T11:38:26Z</time>
      </trkpt>
      <trkpt lat="50.26531" lon="4.53765">
        <ele>265.46</ele>
        <time>2017-03-12T11:38:39Z</time>
      </trkpt>
      <trkpt lat="50.2655" lon="4.53756">
        <ele>265.94</ele>
        <time>2017-03-12T11:38:53Z</time>
      </trkpt>
      <trkpt lat="50.26555" lon="4.53752">
        <ele>265.94</ele>
        <time>2017-03-12T11:38:57Z</time>
      </trkpt>
      <trkpt lat="50.2657" lon="4.53742">
        <ele>265.94</ele>
        <time>2017-03-12T11:39:09Z</time>
      </trkpt>
      <trkpt lat="50.26586" lon="4.53727">
        <ele>266.42</ele>
        <time>2017-03-12T11:39:24Z</time>
      </trkpt>
      <trkpt lat="50.26599" lon="4.53709">
        <ele>266.42</ele>
        <time>2017-03-12T11:39:39Z</time>
      </trkpt>
      <trkpt lat="50.26611" lon="4.53694">
        <ele>265.94</ele>
        <time>2017-03-12T11:39:53Z</time>
      </trkpt>
      <trkpt lat="50.26624" lon="4.5368">
        <ele>266.42</ele>
        <time>2017-03-12T11:40:08Z</time>
      </trkpt>
      <trkpt lat="50.26629" lon="4.53676">
        <ele>266.42</ele>
        <time>2017-03-12T11:40:13Z</time>
      </trkpt>
      <trkpt lat="50.26645" lon="4.53659">
        <ele>266.9</ele>
        <time>2017-03-12T11:40:30Z</time>
      </trkpt>
      <trkpt lat="50.26663" lon="4.53639">
        <ele>266.9</ele>
        <time>2017-03-12T11:40:48Z</time>
      </trkpt>
      <trkpt lat="50.26682" lon="4.53627">
        <ele>267.38</ele>
        <time>2017-03-12T11:41:01Z</time>
      </trkpt>
      <trkpt lat="50.26703" lon="4.53612">
        <ele>266.9</ele>
        <time>2017-03-12T11:41:16Z</time>
      </trkpt>
      <trkpt lat="50.2672" lon="4.53592">
        <ele>267.38</ele>
        <time>2017-03-12T11:41:32Z</time>
      </trkpt>
      <trkpt lat="50.26734" lon="4.53581">
        <ele>267.38</ele>
        <time>2017-03-12T11:41:45Z</time>
      </trkpt>
      <trkpt lat="50.26744" lon="4.53566">
        <ele>267.38</ele>
        <time>2017-03-12T11:41:57Z</time>
      </trkpt>
      <trkpt lat="50.26747" lon="4.53563">
        <ele>266.42</ele>
        <time>2017-03-12T11:42:01Z</time>
      </trkpt>
      <trkpt lat="50.2676" lon="4.53549">
        <ele>266.42</ele>
        <time>2017-03-12T11:42:15Z</time>
      </trkpt>
      <trkpt lat="50.26761" lon="4.53548">
        <ele>265.94</ele>
        <time>2017-03-12T11:42:17Z</time>
      </trkpt>
      <trkpt lat="50.26781" lon="4.53534">
        <ele>265.46</ele>
        <time>2017-03-12T11:42:35Z</time>
      </trkpt>
      <trkpt lat="50.26795" lon="4.53515">
        <ele>264.5</ele>
        <time>2017-03-12T11:42:50Z</time>
      </trkpt>
      <trkpt lat="50.26794" lon="4.53507">
        <ele>264.5</ele>
        <time>2017-03-12T11:43:08Z</time>
      </trkpt>
      <trkpt lat="50.26789" lon="4.53515">
        <ele>264.5</ele>
        <time>2017-03-12T11:43:28Z</time>
      </trkpt>
      <trkpt lat="50.26788" lon="4.53518">
        <ele>264.5</ele>
        <time>2017-03-12T11:43:50Z</time>
      </trkpt>
      <trkpt lat="50.2679" lon="4.53516">
        <ele>263.06</ele>
        <time>2017-03-12T11:44:03Z</time>
      </trkpt>
      <trkpt lat="50.26792" lon="4.53509">
        <ele>264.98</ele>
        <time>2017-03-12T11:44:34Z</time>
      </trkpt>
      <trkpt lat="50.26794" lon="4.53506">
        <ele>264.98</ele>
        <time>2017-03-12T11:45:01Z</time>
      </trkpt>
      <trkpt lat="50.26791" lon="4.53509">
        <ele>264.98</ele>
        <time>2017-03-12T11:45:33Z</time>
      </trkpt>
      <trkpt lat="50.2679" lon="4.53509">
        <ele>264.5</ele>
        <time>2017-03-12T11:46:07Z</time>
      </trkpt>
      <trkpt lat="50.26791" lon="4.53509">
        <ele>265.94</ele>
        <time>2017-03-12T11:46:41Z</time>
      </trkpt>
      <trkpt lat="50.26792" lon="4.53508">
        <ele>264.5</ele>
        <time>2017-03-12T11:46:56Z</time>
      </trkpt>
      <trkpt lat="50.26793" lon="4.53507">
        <ele>265.94</ele>
        <time>2017-03-12T11:47:29Z</time>
      </trkpt>
      <trkpt lat="50.26795" lon="4.53504">
        <ele>265.94</ele>
        <time>2017-03-12T11:47:59Z</time>
      </trkpt>
      <trkpt lat="50.26795" lon="4.53506">
        <ele>265.94</ele>
        <time>2017-03-12T11:48:30Z</time>
      </trkpt>
      <trkpt lat="50.26797" lon="4.53504">
        <ele>266.42</ele>
        <time>2017-03-12T11:49:03Z</time>
      </trkpt>
      <trkpt lat="50.26796" lon="4.53504">
        <ele>265.46</ele>
        <time>2017-03-12T11:49:12Z</time>
      </trkpt>
      <trkpt lat="50.26795" lon="4.53507">
        <ele>267.38</ele>
        <time>2017-03-12T11:49:33Z</time>
      </trkpt>
      <trkpt lat="50.26794" lon="4.53508">
        <ele>264.98</ele>
        <time>2017-03-12T11:49:36Z</time>
      </trkpt>
      <trkpt lat="50.26794" lon="4.53508">
        <ele>266.42</ele>
        <time>2017-03-12T11:49:44Z</time>
      </trkpt>
      <trkpt lat="50.26794" lon="4.53507">
        <ele>265.46</ele>
        <time>2017-03-12T11:50:01Z</time>
      </trkpt>
      <trkpt lat="50.26798" lon="4.53508">
        <ele>266.9</ele>
        <time>2017-03-12T11:50:37Z</time>
      </trkpt>
      <trkpt lat="50.26797" lon="4.53501">
        <ele>266.9</ele>
        <time>2017-03-12T11:51:14Z</time>
      </trkpt>
      <trkpt lat="50.26796" lon="4.53505">
        <ele>266.9</ele>
        <time>2017-03-12T11:51:40Z</time>
      </trkpt>
      <trkpt lat="50.26797" lon="4.53503">
        <ele>267.38</ele>
        <time>2017-03-12T11:52:20Z</time>
      </trkpt>
      <trkpt lat="50.26798" lon="4.53504">
        <ele>267.38</ele>
        <time>2017-03-12T11:53:02Z</time>
      </trkpt>
      <trkpt lat="50.26797" lon="4.53507">
        <ele>267.38</ele>
        <time>2017-03-12T11:53:31Z</time>
      </trkpt>
      <trkpt lat="50.26793" lon="4.53507">
        <ele>266.9</ele>
        <time>2017-03-12T11:53:56Z</time>
      </trkpt>
      <trkpt lat="50.26795" lon="4.53506">
        <ele>267.86</ele>
        <time>2017-03-12T11:54:18Z</time>
      </trkpt>
      <trkpt lat="50.26801" lon="4.53504">
        <ele>268.35</ele>
        <time>2017-03-12T11:54:53Z</time>
      </trkpt>
      <trkpt lat="50.26796" lon="4.53503">
        <ele>267.86</ele>
        <time>2017-03-12T11:55:24Z</time>
      </trkpt>
      <trkpt lat="50.26795" lon="4.53505">
        <ele>268.35</ele>
        <time>2017-03-12T11:55:35Z</time>
      </trkpt>
      <trkpt lat="50.26802" lon="4.53503">
        <ele>267.38</ele>
        <time>2017-03-12T11:56:07Z</time>
      </trkpt>
      <trkpt lat="50.26802" lon="4.53503">
        <ele>268.35</ele>
        <time>2017-03-12T11:56:13Z</time>
      </trkpt>
      <trkpt lat="50.268" lon="4.53504">
        <ele>266.9</ele>
        <time>2017-03-12T11:56:45Z</time>
      </trkpt>
      <trkpt lat="50.26801" lon="4.53504">
        <ele>268.35</ele>
        <time>2017-03-12T11:56:47Z</time>
      </trkpt>
      <trkpt lat="50.26801" lon="4.53503">
        <ele>269.31</ele>
        <time>2017-03-12T11:57:20Z</time>
      </trkpt>
      <trkpt lat="50.26797" lon="4.53507">
        <ele>268.83</ele>
        <time>2017-03-12T11:57:49Z</time>
      </trkpt>
      <trkpt lat="50.26796" lon="4.53508">
        <ele>269.31</ele>
        <time>2017-03-12T11:58:19Z</time>
      </trkpt>
      <trkpt lat="50.26798" lon="4.53509">
        <ele>269.31</ele>
        <time>2017-03-12T11:58:32Z</time>
      </trkpt>
      <trkpt lat="50.26803" lon="4.53508">
        <ele>268.35</ele>
        <time>2017-03-12T11:59:08Z</time>
      </trkpt>
      <trkpt lat="50.26801" lon="4.53508">
        <ele>268.83</ele>
        <time>2017-03-12T11:59:37Z</time>
      </trkpt>
      <trkpt lat="50.26799" lon="4.53507">
        <ele>269.79</ele>
        <time>2017-03-12T11:59:51Z</time>
      </trkpt>
      <trkpt lat="50.26795" lon="4.53508">
        <ele>268.35</ele>
        <time>2017-03-12T12:00:28Z</time>
      </trkpt>
      <trkpt lat="50.26795" lon="4.53508">
        <ele>268.35</ele>
        <time>2017-03-12T12:00:29Z</time>
      </trkpt>
      <trkpt lat="50.26795" lon="4.53508">
        <ele>269.79</ele>
        <time>2017-03-12T12:00:36Z</time>
      </trkpt>
      <trkpt lat="50.26789" lon="4.53516">
        <ele>268.83</ele>
        <time>2017-03-12T12:01:11Z</time>
      </trkpt>
      <trkpt lat="50.26791" lon="4.53519">
        <ele>268.83</ele>
        <time>2017-03-12T12:01:45Z</time>
      </trkpt>
      <trkpt lat="50.26794" lon="4.53515">
        <ele>270.27</ele>
        <time>2017-03-12T12:01:56Z</time>
      </trkpt>
      <trkpt lat="50.26795" lon="4.5351">
        <ele>269.79</ele>
        <time>2017-03-12T12:02:31Z</time>
      </trkpt>
      <trkpt lat="50.26796" lon="4.53511">
        <ele>270.27</ele>
        <time>2017-03-12T12:03:09Z</time>
      </trkpt>
      <trkpt lat="50.2679" lon="4.53512">
        <ele>269.79</ele>
        <time>2017-03-12T12:03:46Z</time>
      </trkpt>
      <trkpt lat="50.26795" lon="4.53514">
        <ele>272.19</ele>
        <time>2017-03-12T12:04:21Z</time>
      </trkpt>
      <trkpt lat="50.26792" lon="4.53516">
        <ele>269.79</ele>
        <time>2017-03-12T12:04:55Z</time>
      </trkpt>
      <trkpt lat="50.268" lon="4.53521">
        <ele>269.79</ele>
        <time>2017-03-12T12:05:35Z</time>
      </trkpt>
      <trkpt lat="50.26796" lon="4.53529">
        <ele>270.27</ele>
        <time>2017-03-12T12:06:09Z</time>
      </trkpt>
      <trkpt lat="50.26795" lon="4.53513">
        <ele>271.23</ele>
        <time>2017-03-12T12:06:40Z</time>
      </trkpt>
      <trkpt lat="50.26795" lon="4.53513">
        <ele>271.23</ele>
        <time>2017-03-12T12:06:41Z</time>
      </trkpt>
      <trkpt lat="50.26796" lon="4.53511">
        <ele>271.23</ele>
        <time>2017-03-12T12:07:14Z</time>
      </trkpt>
      <trkpt lat="50.26799" lon="4.5351">
        <ele>271.71</ele>
        <time>2017-03-12T12:07:54Z</time>
      </trkpt>
      <trkpt lat="50.26792" lon="4.53512">
        <ele>271.71</ele>
        <time>2017-03-12T12:08:24Z</time>
      </trkpt>
      <trkpt lat="50.26791" lon="4.53515">
        <ele>272.19</ele>
        <time>2017-03-12T12:08:50Z</time>
      </trkpt>
      <trkpt lat="50.26792" lon="4.53513">
        <ele>272.19</ele>
        <time>2017-03-12T12:09:13Z</time>
      </trkpt>
      <trkpt lat="50.26792" lon="4.53514">
        <ele>272.19</ele>
        <time>2017-03-12T12:09:36Z</time>
      </trkpt>
      <trkpt lat="50.26798" lon="4.5351">
        <ele>272.19</ele>
        <time>2017-03-12T12:09:54Z</time>
      </trkpt>
      <trkpt lat="50.26796" lon="4.53507">
        <ele>272.19</ele>
        <time>2017-03-12T12:10:13Z</time>
      </trkpt>
      <trkpt lat="50.26793" lon="4.53521">
        <ele>272.19</ele>
        <time>2017-03-12T12:10:37Z</time>
      </trkpt>
      <trkpt lat="50.26792" lon="4.53517">
        <ele>272.19</ele>
        <time>2017-03-12T12:10:56Z</time>
      </trkpt>
      <trkpt lat="50.2679" lon="4.53515">
        <ele>272.67</ele>
        <time>2017-03-12T12:11:12Z</time>
      </trkpt>
      <trkpt lat="50.26794" lon="4.53509">
        <ele>272.67</ele>
        <time>2017-03-12T12:11:29Z</time>
      </trkpt>
      <trkpt lat="50.26796" lon="4.53507">
        <ele>272.67</ele>
        <time>2017-03-12T12:11:45Z</time>
      </trkpt>
      <trkpt lat="50.26798" lon="4.53509">
        <ele>272.67</ele>
        <time>2017-03-12T12:12:00Z</time>
      </trkpt>
      <trkpt lat="50.26795" lon="4.53516">
        <ele>272.67</ele>
        <time>2017-03-12T12:12:13Z</time>
      </trkpt>
      <trkpt lat="50.26794" lon="4.53512">
        <ele>272.67</ele>
        <time>2017-03-12T12:12:30Z</time>
      </trkpt>
      <trkpt lat="50.26795" lon="4.53509">
        <ele>272.67</ele>
        <time>2017-03-12T12:12:46Z</time>
      </trkpt>
      <trkpt lat="50.268" lon="4.53511">
        <ele>272.67</ele>
        <time>2017-03-12T12:13:05Z</time>
      </trkpt>
      <trkpt lat="50.26809" lon="4.53507">
        <ele>273.15</ele>
        <time>2017-03-12T12:13:22Z</time>
      </trkpt>
      <trkpt lat="50.26823" lon="4.53493">
        <ele>273.15</ele>
        <time>2017-03-12T12:13:36Z</time>
      </trkpt>
      <trkpt lat="50.26838" lon="4.53479">
        <ele>271.71</ele>
        <time>2017-03-12T12:13:52Z</time>
      </trkpt>
      <trkpt lat="50.26853" lon="4.53463">
        <ele>271.71</ele>
        <time>2017-03-12T12:14:07Z</time>
      </trkpt>
      <trkpt lat="50.26868" lon="4.53446">
        <ele>271.23</ele>
        <time>2017-03-12T12:14:23Z</time>
      </trkpt>
      <trkpt lat="50.26884" lon="4.53432">
        <ele>271.23</ele>
        <time>2017-03-12T12:14:38Z</time>
      </trkpt>
      <trkpt lat="50.26904" lon="4.53416">
        <ele>270.75</ele>
        <time>2017-03-12T12:14:53Z</time>
      </trkpt>
      <trkpt lat="50.26919" lon="4.534">
        <ele>270.75</ele>
        <time>2017-03-12T12:15:08Z</time>
      </trkpt>
      <trkpt lat="50.26939" lon="4.53383">
        <ele>269.79</ele>
        <time>2017-03-12T12:15:26Z</time>
      </trkpt>
      <trkpt lat="50.26957" lon="4.53362">
        <ele>269.79</ele>
        <time>2017-03-12T12:15:42Z</time>
      </trkpt>
      <trkpt lat="50.26975" lon="4.53345">
        <ele>269.79</ele>
        <time>2017-03-12T12:15:58Z</time>
      </trkpt>
      <trkpt lat="50.26976" lon="4.53345">
        <ele>269.79</ele>
        <time>2017-03-12T12:15:59Z</time>
      </trkpt>
      <trkpt lat="50.26993" lon="4.53329">
        <ele>269.79</ele>
        <time>2017-03-12T12:16:15Z</time>
      </trkpt>
      <trkpt lat="50.2701" lon="4.53313">
        <ele>269.79</ele>
        <time>2017-03-12T12:16:30Z</time>
      </trkpt>
      <trkpt lat="50.27024" lon="4.533">
        <ele>269.31</ele>
        <time>2017-03-12T12:16:44Z</time>
      </trkpt>
      <trkpt lat="50.27042" lon="4.53281">
        <ele>269.31</ele>
        <time>2017-03-12T12:17:00Z</time>
      </trkpt>
      <trkpt lat="50.27059" lon="4.53267">
        <ele>269.31</ele>
        <time>2017-03-12T12:17:15Z</time>
      </trkpt>
      <trkpt lat="50.27073" lon="4.53253">
        <ele>268.35</ele>
        <time>2017-03-12T12:17:28Z</time>
      </trkpt>
      <trkpt lat="50.2709" lon="4.53236">
        <ele>267.38</ele>
        <time>2017-03-12T12:17:45Z</time>
      </trkpt>
      <trkpt lat="50.27097" lon="4.5323">
        <ele>266.9</ele>
        <time>2017-03-12T12:17:52Z</time>
      </trkpt>
      <trkpt lat="50.27099" lon="4.53229">
        <ele>266.9</ele>
        <time>2017-03-12T12:17:54Z</time>
      </trkpt>
      <trkpt lat="50.27117" lon="4.53209">
        <ele>265.46</ele>
        <time>2017-03-12T12:18:12Z</time>
      </trkpt>
      <trkpt lat="50.27131" lon="4.53193">
        <ele>264.98</ele>
        <time>2017-03-12T12:18:26Z</time>
      </trkpt>
      <trkpt lat="50.27144" lon="4.53185">
        <ele>264.98</ele>
        <time>2017-03-12T12:18:38Z</time>
      </trkpt>
      <trkpt lat="50.2716" lon="4.53178">
        <ele>264.98</ele>
        <time>2017-03-12T12:18:53Z</time>
      </trkpt>
      <trkpt lat="50.27169" lon="4.53174">
        <ele>265.94</ele>
        <time>2017-03-12T12:19:02Z</time>
      </trkpt>
      <trkpt lat="50.27189" lon="4.53161">
        <ele>266.42</ele>
        <time>2017-03-12T12:19:17Z</time>
      </trkpt>
      <trkpt lat="50.27209" lon="4.53136">
        <ele>266.42</ele>
        <time>2017-03-12T12:19:34Z</time>
      </trkpt>
      <trkpt lat="50.27214" lon="4.53129">
        <ele>264.98</ele>
        <time>2017-03-12T12:19:41Z</time>
      </trkpt>
      <trkpt lat="50.27227" lon="4.53109">
        <ele>263.54</ele>
        <time>2017-03-12T12:19:58Z</time>
      </trkpt>
      <trkpt lat="50.27234" lon="4.53086">
        <ele>263.06</ele>
        <time>2017-03-12T12:20:13Z</time>
      </trkpt>
      <trkpt lat="50.27235" lon="4.53081">
        <ele>263.06</ele>
        <time>2017-03-12T12:20:16Z</time>
      </trkpt>
      <trkpt lat="50.27247" lon="4.53046">
        <ele>261.62</ele>
        <time>2017-03-12T12:20:34Z</time>
      </trkpt>
      <trkpt lat="50.27265" lon="4.53029">
        <ele>261.62</ele>
        <time>2017-03-12T12:20:50Z</time>
      </trkpt>
      <trkpt lat="50.27279" lon="4.53024">
        <ele>264.02</ele>
        <time>2017-03-12T12:21:02Z</time>
      </trkpt>
      <trkpt lat="50.27296" lon="4.53018">
        <ele>264.98</ele>
        <time>2017-03-12T12:21:17Z</time>
      </trkpt>
      <trkpt lat="50.27312" lon="4.53012">
        <ele>265.94</ele>
        <time>2017-03-12T12:21:31Z</time>
      </trkpt>
      <trkpt lat="50.27335" lon="4.53005">
        <ele>266.9</ele>
        <time>2017-03-12T12:21:48Z</time>
      </trkpt>
      <trkpt lat="50.27352" lon="4.52997">
        <ele>266.9</ele>
        <time>2017-03-12T12:22:04Z</time>
      </trkpt>
      <trkpt lat="50.27374" lon="4.52984">
        <ele>267.38</ele>
        <time>2017-03-12T12:22:22Z</time>
      </trkpt>
      <trkpt lat="50.27398" lon="4.52966">
        <ele>267.38</ele>
        <time>2017-03-12T12:22:42Z</time>
      </trkpt>
      <trkpt lat="50.27415" lon="4.52954">
        <ele>267.38</ele>
        <time>2017-03-12T12:22:56Z</time>
      </trkpt>
      <trkpt lat="50.2743" lon="4.52943">
        <ele>267.38</ele>
        <time>2017-03-12T12:23:11Z</time>
      </trkpt>
      <trkpt lat="50.27444" lon="4.52933">
        <ele>267.38</ele>
        <time>2017-03-12T12:23:25Z</time>
      </trkpt>
      <trkpt lat="50.27449" lon="4.52928">
        <ele>268.83</ele>
        <time>2017-03-12T12:23:33Z</time>
      </trkpt>
      <trkpt lat="50.27458" lon="4.52924">
        <ele>268.83</ele>
        <time>2017-03-12T12:24:04Z</time>
      </trkpt>
      <trkpt lat="50.27478" lon="4.52911">
        <ele>268.83</ele>
        <time>2017-03-12T12:24:22Z</time>
      </trkpt>
      <trkpt lat="50.27493" lon="4.52894">
        <ele>268.35</ele>
        <time>2017-03-12T12:24:37Z</time>
      </trkpt>
      <trkpt lat="50.27493" lon="4.52892">
        <ele>268.35</ele>
        <time>2017-03-12T12:24:38Z</time>
      </trkpt>
      <trkpt lat="50.27493" lon="4.52864">
        <ele>268.83</ele>
        <time>2017-03-12T12:24:59Z</time>
      </trkpt>
      <trkpt lat="50.27487" lon="4.52824">
        <ele>268.83</ele>
        <time>2017-03-12T12:25:21Z</time>
      </trkpt>
      <trkpt lat="50.27481" lon="4.52793">
        <ele>267.38</ele>
        <time>2017-03-12T12:25:36Z</time>
      </trkpt>
      <trkpt lat="50.27472" lon="4.52767">
        <ele>266.9</ele>
        <time>2017-03-12T12:25:51Z</time>
      </trkpt>
      <trkpt lat="50.27461" lon="4.52734">
        <ele>266.42</ele>
        <time>2017-03-12T12:26:08Z</time>
      </trkpt>
      <trkpt lat="50.27458" lon="4.52721">
        <ele>265.94</ele>
        <time>2017-03-12T12:26:15Z</time>
      </trkpt>
      <trkpt lat="50.27451" lon="4.52703">
        <ele>265.94</ele>
        <time>2017-03-12T12:26:25Z</time>
      </trkpt>
      <trkpt lat="50.27447" lon="4.52693">
        <ele>265.46</ele>
        <time>2017-03-12T12:26:31Z</time>
      </trkpt>
      <trkpt lat="50.27451" lon="4.52691">
        <ele>265.46</ele>
        <time>2017-03-12T12:26:47Z</time>
      </trkpt>
      <trkpt lat="50.27453" lon="4.52689">
        <ele>265.46</ele>
        <time>2017-03-12T12:26:52Z</time>
      </trkpt>
      <trkpt lat="50.27467" lon="4.52672">
        <ele>264.98</ele>
        <time>2017-03-12T12:27:08Z</time>
      </trkpt>
      <trkpt lat="50.27487" lon="4.52652">
        <ele>264.5</ele>
        <time>2017-03-12T12:27:25Z</time>
      </trkpt>
      <trkpt lat="50.27495" lon="4.52641">
        <ele>264.5</ele>
        <time>2017-03-12T12:27:35Z</time>
      </trkpt>
      <trkpt lat="50.27501" lon="4.52622">
        <ele>264.5</ele>
        <time>2017-03-12T12:27:44Z</time>
      </trkpt>
      <trkpt lat="50.27517" lon="4.52597">
        <ele>263.54</ele>
        <time>2017-03-12T12:28:02Z</time>
      </trkpt>
      <trkpt lat="50.27529" lon="4.52581">
        <ele>262.1</ele>
        <time>2017-03-12T12:28:15Z</time>
      </trkpt>
      <trkpt lat="50.27546" lon="4.52559">
        <ele>261.14</ele>
        <time>2017-03-12T12:28:31Z</time>
      </trkpt>
      <trkpt lat="50.27558" lon="4.52551">
        <ele>260.65</ele>
        <time>2017-03-12T12:28:46Z</time>
      </trkpt>
      <trkpt lat="50.27581" lon="4.52547">
        <ele>260.65</ele>
        <time>2017-03-12T12:29:05Z</time>
      </trkpt>
      <trkpt lat="50.27601" lon="4.52551">
        <ele>260.17</ele>
        <time>2017-03-12T12:29:23Z</time>
      </trkpt>
      <trkpt lat="50.27619" lon="4.52553">
        <ele>260.17</ele>
        <time>2017-03-12T12:29:38Z</time>
      </trkpt>
      <trkpt lat="50.2764" lon="4.52559">
        <ele>259.69</ele>
        <time>2017-03-12T12:29:58Z</time>
      </trkpt>
      <trkpt lat="50.27662" lon="4.52562">
        <ele>259.69</ele>
        <time>2017-03-12T12:30:14Z</time>
      </trkpt>
      <trkpt lat="50.27679" lon="4.52568">
        <ele>261.14</ele>
        <time>2017-03-12T12:30:28Z</time>
      </trkpt>
      <trkpt lat="50.27703" lon="4.52584">
        <ele>262.58</ele>
        <time>2017-03-12T12:30:48Z</time>
      </trkpt>
      <trkpt lat="50.27725" lon="4.52598">
        <ele>264.02</ele>
        <time>2017-03-12T12:31:06Z</time>
      </trkpt>
      <trkpt lat="50.2775" lon="4.52606">
        <ele>264.5</ele>
        <time>2017-03-12T12:31:26Z</time>
      </trkpt>
      <trkpt lat="50.27776" lon="4.5261">
        <ele>264.5</ele>
        <time>2017-03-12T12:31:45Z</time>
      </trkpt>
      <trkpt lat="50.27797" lon="4.52614">
        <ele>264.5</ele>
        <time>2017-03-12T12:32:02Z</time>
      </trkpt>
      <trkpt lat="50.27805" lon="4.52616">
        <ele>264.5</ele>
        <time>2017-03-12T12:32:08Z</time>
      </trkpt>
      <trkpt lat="50.27828" lon="4.52622">
        <ele>263.54</ele>
        <time>2017-03-12T12:32:26Z</time>
      </trkpt>
      <trkpt lat="50.27845" lon="4.52631">
        <ele>262.58</ele>
        <time>2017-03-12T12:32:44Z</time>
      </trkpt>
      <trkpt lat="50.27859" lon="4.52641">
        <ele>262.58</ele>
        <time>2017-03-12T12:33:00Z</time>
      </trkpt>
      <trkpt lat="50.27885" lon="4.5265">
        <ele>262.58</ele>
        <time>2017-03-12T12:33:15Z</time>
      </trkpt>
      <trkpt lat="50.27901" lon="4.52656">
        <ele>262.58</ele>
        <time>2017-03-12T12:33:28Z</time>
      </trkpt>
      <trkpt lat="50.27915" lon="4.52666">
        <ele>264.02</ele>
        <time>2017-03-12T12:33:42Z</time>
      </trkpt>
      <trkpt lat="50.27933" lon="4.52682">
        <ele>264.98</ele>
        <time>2017-03-12T12:34:01Z</time>
      </trkpt>
      <trkpt lat="50.27947" lon="4.52692">
        <ele>266.42</ele>
        <time>2017-03-12T12:34:19Z</time>
      </trkpt>
      <trkpt lat="50.27964" lon="4.52698">
        <ele>266.9</ele>
        <time>2017-03-12T12:34:35Z</time>
      </trkpt>
      <trkpt lat="50.27989" lon="4.527">
        <ele>267.86</ele>
        <time>2017-03-12T12:34:53Z</time>
      </trkpt>
      <trkpt lat="50.28009" lon="4.52709">
        <ele>267.86</ele>
        <time>2017-03-12T12:35:10Z</time>
      </trkpt>
      <trkpt lat="50.28023" lon="4.52722">
        <ele>268.83</ele>
        <time>2017-03-12T12:35:27Z</time>
      </trkpt>
      <trkpt lat="50.28045" lon="4.52747">
        <ele>269.31</ele>
        <time>2017-03-12T12:35:48Z</time>
      </trkpt>
      <trkpt lat="50.28055" lon="4.52754">
        <ele>269.31</ele>
        <time>2017-03-12T12:35:58Z</time>
      </trkpt>
      <trkpt lat="50.28067" lon="4.52738">
        <ele>269.31</ele>
        <time>2017-03-12T12:36:11Z</time>
      </trkpt>
      <trkpt lat="50.28077" lon="4.52717">
        <ele>269.31</ele>
        <time>2017-03-12T12:36:25Z</time>
      </trkpt>
      <trkpt lat="50.28088" lon="4.52707">
        <ele>269.31</ele>
        <time>2017-03-12T12:36:37Z</time>
      </trkpt>
      <trkpt lat="50.28108" lon="4.5271">
        <ele>267.86</ele>
        <time>2017-03-12T12:36:53Z</time>
      </trkpt>
      <trkpt lat="50.28108" lon="4.5271">
        <ele>267.86</ele>
        <time>2017-03-12T12:36:54Z</time>
      </trkpt>
      <trkpt lat="50.28113" lon="4.52712">
        <ele>267.86</ele>
        <time>2017-03-12T12:36:59Z</time>
      </trkpt>
      <trkpt lat="50.28131" lon="4.52715">
        <ele>267.86</ele>
        <time>2017-03-12T12:37:15Z</time>
      </trkpt>
      <trkpt lat="50.28137" lon="4.52715">
        <ele>268.83</ele>
        <time>2017-03-12T12:37:20Z</time>
      </trkpt>
      <trkpt lat="50.28157" lon="4.52721">
        <ele>268.83</ele>
        <time>2017-03-12T12:37:35Z</time>
      </trkpt>
      <trkpt lat="50.28189" lon="4.52729">
        <ele>268.83</ele>
        <time>2017-03-12T12:37:53Z</time>
      </trkpt>
      <trkpt lat="50.282" lon="4.52737">
        <ele>268.83</ele>
        <time>2017-03-12T12:38:08Z</time>
      </trkpt>
      <trkpt lat="50.28221" lon="4.52746">
        <ele>267.86</ele>
        <time>2017-03-12T12:38:28Z</time>
      </trkpt>
      <trkpt lat="50.28241" lon="4.5275">
        <ele>267.38</ele>
        <time>2017-03-12T12:38:43Z</time>
      </trkpt>
      <trkpt lat="50.28257" lon="4.52766">
        <ele>267.38</ele>
        <time>2017-03-12T12:38:58Z</time>
      </trkpt>
      <trkpt lat="50.28276" lon="4.5279">
        <ele>266.9</ele>
        <time>2017-03-12T12:39:18Z</time>
      </trkpt>
      <trkpt lat="50.28288" lon="4.52812">
        <ele>266.42</ele>
        <time>2017-03-12T12:39:33Z</time>
      </trkpt>
      <trkpt lat="50.28301" lon="4.52839">
        <ele>265.94</ele>
        <time>2017-03-12T12:39:50Z</time>
      </trkpt>
      <trkpt lat="50.28319" lon="4.52859">
        <ele>265.46</ele>
        <time>2017-03-12T12:40:10Z</time>
      </trkpt>
      <trkpt lat="50.28332" lon="4.52835">
        <ele>264.02</ele>
        <time>2017-03-12T12:40:29Z</time>
      </trkpt>
      <trkpt lat="50.28336" lon="4.52811">
        <ele>263.06</ele>
        <time>2017-03-12T12:40:43Z</time>
      </trkpt>
      <trkpt lat="50.28339" lon="4.52783">
        <ele>262.1</ele>
        <time>2017-03-12T12:40:58Z</time>
      </trkpt>
      <trkpt lat="50.28341" lon="4.52771">
        <ele>261.62</ele>
        <time>2017-03-12T12:41:04Z</time>
      </trkpt>
      <trkpt lat="50.28343" lon="4.52737">
        <ele>260.17</ele>
        <time>2017-03-12T12:41:18Z</time>
      </trkpt>
      <trkpt lat="50.28351" lon="4.52718">
        <ele>258.73</ele>
        <time>2017-03-12T12:41:28Z</time>
      </trkpt>
      <trkpt lat="50.28363" lon="4.52689">
        <ele>258.25</ele>
        <time>2017-03-12T12:41:44Z</time>
      </trkpt>
      <trkpt lat="50.28367" lon="4.52666">
        <ele>257.77</ele>
        <time>2017-03-12T12:41:58Z</time>
      </trkpt>
      <trkpt lat="50.28368" lon="4.52652">
        <ele>257.29</ele>
        <time>2017-03-12T12:42:05Z</time>
      </trkpt>
      <trkpt lat="50.2837" lon="4.52622">
        <ele>256.33</ele>
        <time>2017-03-12T12:42:19Z</time>
      </trkpt>
      <trkpt lat="50.28369" lon="4.52612">
        <ele>256.33</ele>
        <time>2017-03-12T12:42:25Z</time>
      </trkpt>
      <trkpt lat="50.28356" lon="4.52602">
        <ele>257.29</ele>
        <time>2017-03-12T12:42:36Z</time>
      </trkpt>
      <trkpt lat="50.28336" lon="4.52585">
        <ele>258.73</ele>
        <time>2017-03-12T12:42:53Z</time>
      </trkpt>
      <trkpt lat="50.28325" lon="4.5258">
        <ele>259.21</ele>
        <time>2017-03-12T12:43:02Z</time>
      </trkpt>
      <trkpt lat="50.28311" lon="4.52569">
        <ele>260.17</ele>
        <time>2017-03-12T12:43:18Z</time>
      </trkpt>
      <trkpt lat="50.28292" lon="4.52556">
        <ele>261.14</ele>
        <time>2017-03-12T12:43:37Z</time>
      </trkpt>
      <trkpt lat="50.28273" lon="4.52543">
        <ele>261.14</ele>
        <time>2017-03-12T12:43:52Z</time>
      </trkpt>
      <trkpt lat="50.28252" lon="4.52528">
        <ele>261.62</ele>
        <time>2017-03-12T12:44:09Z</time>
      </trkpt>
      <trkpt lat="50.28239" lon="4.52516">
        <ele>262.1</ele>
        <time>2017-03-12T12:44:23Z</time>
      </trkpt>
      <trkpt lat="50.28218" lon="4.52496">
        <ele>262.1</ele>
        <time>2017-03-12T12:44:39Z</time>
      </trkpt>
      <trkpt lat="50.28203" lon="4.52481">
        <ele>262.58</ele>
        <time>2017-03-12T12:44:55Z</time>
      </trkpt>
      <trkpt lat="50.28196" lon="4.52474">
        <ele>262.1</ele>
        <time>2017-03-12T12:45:04Z</time>
      </trkpt>
      <trkpt lat="50.28181" lon="4.52462">
        <ele>262.58</ele>
        <time>2017-03-12T12:45:21Z</time>
      </trkpt>
      <trkpt lat="50.28167" lon="4.52447">
        <ele>263.06</ele>
        <time>2017-03-12T12:45:36Z</time>
      </trkpt>
      <trkpt lat="50.28147" lon="4.52429">
        <ele>263.06</ele>
        <time>2017-03-12T12:45:53Z</time>
      </trkpt>
      <trkpt lat="50.28133" lon="4.52412">
        <ele>263.06</ele>
        <time>2017-03-12T12:46:07Z</time>
      </trkpt>
      <trkpt lat="50.28119" lon="4.52402">
        <ele>262.58</ele>
        <time>2017-03-12T12:46:18Z</time>
      </trkpt>
      <trkpt lat="50.28101" lon="4.5239">
        <ele>262.58</ele>
        <time>2017-03-12T12:46:33Z</time>
      </trkpt>
      <trkpt lat="50.28082" lon="4.5238">
        <ele>262.58</ele>
        <time>2017-03-12T12:46:48Z</time>
      </trkpt>
      <trkpt lat="50.28069" lon="4.52371">
        <ele>262.58</ele>
        <time>2017-03-12T12:47:00Z</time>
      </trkpt>
      <trkpt lat="50.2805" lon="4.52358">
        <ele>262.58</ele>
        <time>2017-03-12T12:47:18Z</time>
      </trkpt>
      <trkpt lat="50.28029" lon="4.52347">
        <ele>261.14</ele>
        <time>2017-03-12T12:47:35Z</time>
      </trkpt>
      <trkpt lat="50.28028" lon="4.52346">
        <ele>261.14</ele>
        <time>2017-03-12T12:47:36Z</time>
      </trkpt>
      <trkpt lat="50.28006" lon="4.52333">
        <ele>260.65</ele>
        <time>2017-03-12T12:47:51Z</time>
      </trkpt>
      <trkpt lat="50.27986" lon="4.52332">
        <ele>259.69</ele>
        <time>2017-03-12T12:48:09Z</time>
      </trkpt>
      <trkpt lat="50.27975" lon="4.52336">
        <ele>259.69</ele>
        <time>2017-03-12T12:48:18Z</time>
      </trkpt>
      <trkpt lat="50.27958" lon="4.52336">
        <ele>258.73</ele>
        <time>2017-03-12T12:48:33Z</time>
      </trkpt>
      <trkpt lat="50.27949" lon="4.52334">
        <ele>258.25</ele>
        <time>2017-03-12T12:48:40Z</time>
      </trkpt>
      <trkpt lat="50.27935" lon="4.5233">
        <ele>257.77</ele>
        <time>2017-03-12T12:48:49Z</time>
      </trkpt>
      <trkpt lat="50.27932" lon="4.5232">
        <ele>257.77</ele>
        <time>2017-03-12T12:48:54Z</time>
      </trkpt>
      <trkpt lat="50.27935" lon="4.52313">
        <ele>257.29</ele>
        <time>2017-03-12T12:49:00Z</time>
      </trkpt>
      <trkpt lat="50.2795" lon="4.52293">
        <ele>257.29</ele>
        <time>2017-03-12T12:49:18Z</time>
      </trkpt>
      <trkpt lat="50.27957" lon="4.52282">
        <ele>257.29</ele>
        <time>2017-03-12T12:49:26Z</time>
      </trkpt>
      <trkpt lat="50.27971" lon="4.52258">
        <ele>257.29</ele>
        <time>2017-03-12T12:49:42Z</time>
      </trkpt>
      <trkpt lat="50.27984" lon="4.52233">
        <ele>256.33</ele>
        <time>2017-03-12T12:49:59Z</time>
      </trkpt>
      <trkpt lat="50.27994" lon="4.52206">
        <ele>255.37</ele>
        <time>2017-03-12T12:50:14Z</time>
      </trkpt>
      <trkpt lat="50.28004" lon="4.52178">
        <ele>254.89</ele>
        <time>2017-03-12T12:50:30Z</time>
      </trkpt>
      <trkpt lat="50.28017" lon="4.52149">
        <ele>253.93</ele>
        <time>2017-03-12T12:50:48Z</time>
      </trkpt>
      <trkpt lat="50.28027" lon="4.52129">
        <ele>253.93</ele>
        <time>2017-03-12T12:51:03Z</time>
      </trkpt>
      <trkpt lat="50.28035" lon="4.52117">
        <ele>253.44</ele>
        <time>2017-03-12T12:51:17Z</time>
      </trkpt>
      <trkpt lat="50.28049" lon="4.52121">
        <ele>253.44</ele>
        <time>2017-03-12T12:51:35Z</time>
      </trkpt>
      <trkpt lat="50.28052" lon="4.52118">
        <ele>255.37</ele>
        <time>2017-03-12T12:51:40Z</time>
      </trkpt>
      <trkpt lat="50.28054" lon="4.52118">
        <ele>253.93</ele>
        <time>2017-03-12T12:51:42Z</time>
      </trkpt>
      <trkpt lat="50.28063" lon="4.5213">
        <ele>253.93</ele>
        <time>2017-03-12T12:52:00Z</time>
      </trkpt>
      <trkpt lat="50.28062" lon="4.52128">
        <ele>255.85</ele>
        <time>2017-03-12T12:52:02Z</time>
      </trkpt>
      <trkpt lat="50.28061" lon="4.5213">
        <ele>253.93</ele>
        <time>2017-03-12T12:52:09Z</time>
      </trkpt>
      <trkpt lat="50.28061" lon="4.52132">
        <ele>255.37</ele>
        <time>2017-03-12T12:52:11Z</time>
      </trkpt>
      <trkpt lat="50.28061" lon="4.52133">
        <ele>253.93</ele>
        <time>2017-03-12T12:52:13Z</time>
      </trkpt>
      <trkpt lat="50.28051" lon="4.52128">
        <ele>253.93</ele>
        <time>2017-03-12T12:52:31Z</time>
      </trkpt>
      <trkpt lat="50.28052" lon="4.52131">
        <ele>254.89</ele>
        <time>2017-03-12T12:52:37Z</time>
      </trkpt>
      <trkpt lat="50.28046" lon="4.52149">
        <ele>254.89</ele>
        <time>2017-03-12T12:52:55Z</time>
      </trkpt>
      <trkpt lat="50.28051" lon="4.52142">
        <ele>254.41</ele>
        <time>2017-03-12T12:53:12Z</time>
      </trkpt>
      <trkpt lat="50.28054" lon="4.52141">
        <ele>253.93</ele>
        <time>2017-03-12T12:53:21Z</time>
      </trkpt>
      <trkpt lat="50.28046" lon="4.52131">
        <ele>253.93</ele>
        <time>2017-03-12T12:53:37Z</time>
      </trkpt>
      <trkpt lat="50.28045" lon="4.52118">
        <ele>253.93</ele>
        <time>2017-03-12T12:53:55Z</time>
      </trkpt>
      <trkpt lat="50.28034" lon="4.52121">
        <ele>253.44</ele>
        <time>2017-03-12T12:54:12Z</time>
      </trkpt>
      <trkpt lat="50.28045" lon="4.52119">
        <ele>253.44</ele>
        <time>2017-03-12T12:54:35Z</time>
      </trkpt>
      <trkpt lat="50.28043" lon="4.52097">
        <ele>252.48</ele>
        <time>2017-03-12T12:54:53Z</time>
      </trkpt>
      <trkpt lat="50.28053" lon="4.5208">
        <ele>252.48</ele>
        <time>2017-03-12T12:55:08Z</time>
      </trkpt>
      <trkpt lat="50.28061" lon="4.52061">
        <ele>251.52</ele>
        <time>2017-03-12T12:55:22Z</time>
      </trkpt>
      <trkpt lat="50.2807" lon="4.52046">
        <ele>251.52</ele>
        <time>2017-03-12T12:55:36Z</time>
      </trkpt>
      <trkpt lat="50.28086" lon="4.52043">
        <ele>251.04</ele>
        <time>2017-03-12T12:55:52Z</time>
      </trkpt>
      <trkpt lat="50.28089" lon="4.52045">
        <ele>252</ele>
        <time>2017-03-12T12:56:01Z</time>
      </trkpt>
      <trkpt lat="50.28089" lon="4.52045">
        <ele>250.08</ele>
        <time>2017-03-12T12:56:06Z</time>
      </trkpt>
      <trkpt lat="50.28083" lon="4.52045">
        <ele>250.56</ele>
        <time>2017-03-12T12:56:31Z</time>
      </trkpt>
      <trkpt lat="50.2809" lon="4.52038">
        <ele>251.04</ele>
        <time>2017-03-12T12:56:42Z</time>
      </trkpt>
      <trkpt lat="50.28109" lon="4.52041">
        <ele>250.08</ele>
        <time>2017-03-12T12:57:01Z</time>
      </trkpt>
      <trkpt lat="50.28116" lon="4.52045">
        <ele>247.2</ele>
        <time>2017-03-12T12:57:20Z</time>
      </trkpt>
      <trkpt lat="50.28116" lon="4.52045">
        <ele>252</ele>
        <time>2017-03-12T12:57:21Z</time>
      </trkpt>
      <trkpt lat="50.28117" lon="4.52045">
        <ele>245.27</ele>
        <time>2017-03-12T12:57:36Z</time>
      </trkpt>
      <trkpt lat="50.28117" lon="4.52046">
        <ele>252.96</ele>
        <time>2017-03-12T12:57:37Z</time>
      </trkpt>
      <trkpt lat="50.28117" lon="4.52049">
        <ele>247.2</ele>
        <time>2017-03-12T12:57:43Z</time>
      </trkpt>
      <trkpt lat="50.28116" lon="4.52049">
        <ele>250.56</ele>
        <time>2017-03-12T12:57:45Z</time>
      </trkpt>
      <trkpt lat="50.28116" lon="4.52049">
        <ele>250.56</ele>
        <time>2017-03-12T12:57:46Z</time>
      </trkpt>
      <trkpt lat="50.28109" lon="4.52049">
        <ele>256.81</ele>
        <time>2017-03-12T12:57:54Z</time>
      </trkpt>
      <trkpt lat="50.28108" lon="4.52053">
        <ele>251.04</ele>
        <time>2017-03-12T12:57:55Z</time>
      </trkpt>
      <trkpt lat="50.28116" lon="4.52061">
        <ele>251.52</ele>
        <time>2017-03-12T12:58:09Z</time>
      </trkpt>
      <trkpt lat="50.28105" lon="4.52037">
        <ele>250.56</ele>
        <time>2017-03-12T12:58:28Z</time>
      </trkpt>
      <trkpt lat="50.28092" lon="4.5202">
        <ele>250.56</ele>
        <time>2017-03-12T12:58:45Z</time>
      </trkpt>
      <trkpt lat="50.28086" lon="4.52005">
        <ele>249.6</ele>
        <time>2017-03-12T12:59:00Z</time>
      </trkpt>
      <trkpt lat="50.28084" lon="4.51992">
        <ele>249.12</ele>
        <time>2017-03-12T12:59:09Z</time>
      </trkpt>
      <trkpt lat="50.28078" lon="4.51973">
        <ele>248.64</ele>
        <time>2017-03-12T12:59:23Z</time>
      </trkpt>
      <trkpt lat="50.28072" lon="4.51953">
        <ele>248.64</ele>
        <time>2017-03-12T12:59:40Z</time>
      </trkpt>
      <trkpt lat="50.28066" lon="4.51929">
        <ele>247.68</ele>
        <time>2017-03-12T12:59:58Z</time>
      </trkpt>
      <trkpt lat="50.28059" lon="4.51898">
        <ele>247.2</ele>
        <time>2017-03-12T13:00:14Z</time>
      </trkpt>
      <trkpt lat="50.28051" lon="4.51861">
        <ele>245.75</ele>
        <time>2017-03-12T13:00:31Z</time>
      </trkpt>
      <trkpt lat="50.28048" lon="4.5183">
        <ele>244.79</ele>
        <time>2017-03-12T13:00:45Z</time>
      </trkpt>
      <trkpt lat="50.28041" lon="4.51808">
        <ele>243.83</ele>
        <time>2017-03-12T13:01:02Z</time>
      </trkpt>
      <trkpt lat="50.28041" lon="4.51804">
        <ele>243.35</ele>
        <time>2017-03-12T13:01:04Z</time>
      </trkpt>
      <trkpt lat="50.28043" lon="4.518">
        <ele>243.35</ele>
        <time>2017-03-12T13:01:07Z</time>
      </trkpt>
      <trkpt lat="50.28039" lon="4.5176">
        <ele>242.39</ele>
        <time>2017-03-12T13:01:23Z</time>
      </trkpt>
      <trkpt lat="50.28035" lon="4.51736">
        <ele>242.39</ele>
        <time>2017-03-12T13:01:38Z</time>
      </trkpt>
      <trkpt lat="50.28035" lon="4.51734">
        <ele>242.39</ele>
        <time>2017-03-12T13:01:39Z</time>
      </trkpt>
      <trkpt lat="50.28038" lon="4.51713">
        <ele>240.95</ele>
        <time>2017-03-12T13:01:53Z</time>
      </trkpt>
      <trkpt lat="50.28049" lon="4.5169">
        <ele>239.02</ele>
        <time>2017-03-12T13:02:08Z</time>
      </trkpt>
      <trkpt lat="50.28059" lon="4.51671">
        <ele>238.06</ele>
        <time>2017-03-12T13:02:24Z</time>
      </trkpt>
      <trkpt lat="50.28066" lon="4.51653">
        <ele>237.1</ele>
        <time>2017-03-12T13:02:36Z</time>
      </trkpt>
      <trkpt lat="50.28082" lon="4.51624">
        <ele>235.66</ele>
        <time>2017-03-12T13:02:48Z</time>
      </trkpt>
      <trkpt lat="50.28091" lon="4.51606">
        <ele>233.74</ele>
        <time>2017-03-12T13:03:03Z</time>
      </trkpt>
      <trkpt lat="50.28104" lon="4.51584">
        <ele>232.3</ele>
        <time>2017-03-12T13:03:16Z</time>
      </trkpt>
      <trkpt lat="50.2812" lon="4.51566">
        <ele>230.85</ele>
        <time>2017-03-12T13:03:29Z</time>
      </trkpt>
      <trkpt lat="50.28127" lon="4.51549">
        <ele>228.93</ele>
        <time>2017-03-12T13:03:43Z</time>
      </trkpt>
      <trkpt lat="50.2814" lon="4.51522">
        <ele>227.01</ele>
        <time>2017-03-12T13:03:58Z</time>
      </trkpt>
      <trkpt lat="50.28144" lon="4.51513">
        <ele>226.53</ele>
        <time>2017-03-12T13:04:02Z</time>
      </trkpt>
      <trkpt lat="50.28156" lon="4.5149">
        <ele>224.12</ele>
        <time>2017-03-12T13:04:15Z</time>
      </trkpt>
      <trkpt lat="50.28161" lon="4.51474">
        <ele>222.68</ele>
        <time>2017-03-12T13:04:26Z</time>
      </trkpt>
      <trkpt lat="50.28161" lon="4.51473">
        <ele>222.68</ele>
        <time>2017-03-12T13:04:27Z</time>
      </trkpt>
      <trkpt lat="50.28172" lon="4.51456">
        <ele>220.76</ele>
        <time>2017-03-12T13:04:41Z</time>
      </trkpt>
      <trkpt lat="50.2818" lon="4.51424">
        <ele>219.8</ele>
        <time>2017-03-12T13:04:53Z</time>
      </trkpt>
      <trkpt lat="50.2819" lon="4.51405">
        <ele>218.84</ele>
        <time>2017-03-12T13:05:08Z</time>
      </trkpt>
      <trkpt lat="50.28198" lon="4.51387">
        <ele>217.4</ele>
        <time>2017-03-12T13:05:20Z</time>
      </trkpt>
      <trkpt lat="50.28201" lon="4.5138">
        <ele>217.4</ele>
        <time>2017-03-12T13:05:24Z</time>
      </trkpt>
      <trkpt lat="50.28205" lon="4.51359">
        <ele>215.95</ele>
        <time>2017-03-12T13:05:36Z</time>
      </trkpt>
      <trkpt lat="50.28207" lon="4.51326">
        <ele>214.99</ele>
        <time>2017-03-12T13:05:48Z</time>
      </trkpt>
      <trkpt lat="50.28209" lon="4.51298">
        <ele>213.55</ele>
        <time>2017-03-12T13:06:01Z</time>
      </trkpt>
      <trkpt lat="50.28208" lon="4.51293">
        <ele>213.07</ele>
        <time>2017-03-12T13:06:04Z</time>
      </trkpt>
      <trkpt lat="50.28204" lon="4.51279">
        <ele>211.15</ele>
        <time>2017-03-12T13:06:12Z</time>
      </trkpt>
      <trkpt lat="50.28192" lon="4.51251">
        <ele>210.19</ele>
        <time>2017-03-12T13:06:26Z</time>
      </trkpt>
      <trkpt lat="50.28183" lon="4.51239">
        <ele>208.26</ele>
        <time>2017-03-12T13:06:41Z</time>
      </trkpt>
      <trkpt lat="50.28169" lon="4.51223">
        <ele>204.9</ele>
        <time>2017-03-12T13:06:58Z</time>
      </trkpt>
      <trkpt lat="50.2816" lon="4.51213">
        <ele>202.49</ele>
        <time>2017-03-12T13:07:12Z</time>
      </trkpt>
      <trkpt lat="50.28146" lon="4.51182">
        <ele>199.13</ele>
        <time>2017-03-12T13:07:26Z</time>
      </trkpt>
      <trkpt lat="50.28131" lon="4.51165">
        <ele>197.69</ele>
        <time>2017-03-12T13:07:39Z</time>
      </trkpt>
      <trkpt lat="50.28125" lon="4.51153">
        <ele>194.32</ele>
        <time>2017-03-12T13:07:52Z</time>
      </trkpt>
      <trkpt lat="50.28124" lon="4.51152">
        <ele>194.32</ele>
        <time>2017-03-12T13:07:53Z</time>
      </trkpt>
      <trkpt lat="50.28113" lon="4.51133">
        <ele>193.36</ele>
        <time>2017-03-12T13:08:07Z</time>
      </trkpt>
      <trkpt lat="50.28098" lon="4.51095">
        <ele>190.96</ele>
        <time>2017-03-12T13:08:23Z</time>
      </trkpt>
      <trkpt lat="50.28089" lon="4.51079">
        <ele>189.04</ele>
        <time>2017-03-12T13:08:36Z</time>
      </trkpt>
      <trkpt lat="50.28078" lon="4.51053">
        <ele>187.59</ele>
        <time>2017-03-12T13:08:52Z</time>
      </trkpt>
      <trkpt lat="50.28064" lon="4.51029">
        <ele>185.67</ele>
        <time>2017-03-12T13:09:09Z</time>
      </trkpt>
      <trkpt lat="50.28054" lon="4.5101">
        <ele>184.71</ele>
        <time>2017-03-12T13:09:22Z</time>
      </trkpt>
      <trkpt lat="50.28045" lon="4.50993">
        <ele>183.75</ele>
        <time>2017-03-12T13:09:35Z</time>
      </trkpt>
      <trkpt lat="50.28034" lon="4.50962">
        <ele>182.31</ele>
        <time>2017-03-12T13:09:54Z</time>
      </trkpt>
      <trkpt lat="50.28016" lon="4.50939">
        <ele>181.35</ele>
        <time>2017-03-12T13:10:11Z</time>
      </trkpt>
      <trkpt lat="50.27995" lon="4.50919">
        <ele>180.87</ele>
        <time>2017-03-12T13:10:27Z</time>
      </trkpt>
      <trkpt lat="50.27976" lon="4.50904">
        <ele>180.38</ele>
        <time>2017-03-12T13:10:43Z</time>
      </trkpt>
      <trkpt lat="50.27956" lon="4.50895">
        <ele>180.38</ele>
        <time>2017-03-12T13:10:59Z</time>
      </trkpt>
      <trkpt lat="50.27955" lon="4.50897">
        <ele>180.38</ele>
        <time>2017-03-12T13:11:01Z</time>
      </trkpt>
      <trkpt lat="50.27955" lon="4.50904">
        <ele>180.38</ele>
        <time>2017-03-12T13:11:05Z</time>
      </trkpt>
      <trkpt lat="50.27945" lon="4.50931">
        <ele>181.83</ele>
        <time>2017-03-12T13:11:23Z</time>
      </trkpt>
      <trkpt lat="50.2793" lon="4.50958">
        <ele>182.79</ele>
        <time>2017-03-12T13:11:40Z</time>
      </trkpt>
      <trkpt lat="50.27919" lon="4.5098">
        <ele>184.23</ele>
        <time>2017-03-12T13:11:54Z</time>
      </trkpt>
      <trkpt lat="50.27903" lon="4.51">
        <ele>186.63</ele>
        <time>2017-03-12T13:12:09Z</time>
      </trkpt>
      <trkpt lat="50.27888" lon="4.51023">
        <ele>188.08</ele>
        <time>2017-03-12T13:12:26Z</time>
      </trkpt>
      <trkpt lat="50.27877" lon="4.51041">
        <ele>189.04</ele>
        <time>2017-03-12T13:12:39Z</time>
      </trkpt>
      <trkpt lat="50.27866" lon="4.51044">
        <ele>189.04</ele>
        <time>2017-03-12T13:12:46Z</time>
      </trkpt>
      <trkpt lat="50.27843" lon="4.51018">
        <ele>190</ele>
        <time>2017-03-12T13:13:06Z</time>
      </trkpt>
      <trkpt lat="50.27826" lon="4.50994">
        <ele>190.48</ele>
        <time>2017-03-12T13:13:22Z</time>
      </trkpt>
      <trkpt lat="50.27807" lon="4.50969">
        <ele>190.48</ele>
        <time>2017-03-12T13:13:40Z</time>
      </trkpt>
      <trkpt lat="50.27786" lon="4.50954">
        <ele>188.56</ele>
        <time>2017-03-12T13:13:57Z</time>
      </trkpt>
      <trkpt lat="50.27764" lon="4.5094">
        <ele>187.59</ele>
        <time>2017-03-12T13:14:14Z</time>
      </trkpt>
      <trkpt lat="50.27739" lon="4.50927">
        <ele>189.04</ele>
        <time>2017-03-12T13:14:34Z</time>
      </trkpt>
      <trkpt lat="50.2772" lon="4.50938">
        <ele>190.96</ele>
        <time>2017-03-12T13:14:51Z</time>
      </trkpt>
      <trkpt lat="50.27713" lon="4.50967">
        <ele>192.88</ele>
        <time>2017-03-12T13:15:07Z</time>
      </trkpt>
      <trkpt lat="50.277" lon="4.51005">
        <ele>195.28</ele>
        <time>2017-03-12T13:15:29Z</time>
      </trkpt>
      <trkpt lat="50.27699" lon="4.51008">
        <ele>195.28</ele>
        <time>2017-03-12T13:15:31Z</time>
      </trkpt>
      <trkpt lat="50.27697" lon="4.51009">
        <ele>195.28</ele>
        <time>2017-03-12T13:15:33Z</time>
      </trkpt>
      <trkpt lat="50.27691" lon="4.51023">
        <ele>196.25</ele>
        <time>2017-03-12T13:15:42Z</time>
      </trkpt>
      <trkpt lat="50.27689" lon="4.51034">
        <ele>197.21</ele>
        <time>2017-03-12T13:15:48Z</time>
      </trkpt>
      <trkpt lat="50.27687" lon="4.5104">
        <ele>197.21</ele>
        <time>2017-03-12T13:15:52Z</time>
      </trkpt>
      <trkpt lat="50.27685" lon="4.51053">
        <ele>198.17</ele>
        <time>2017-03-12T13:16:00Z</time>
      </trkpt>
      <trkpt lat="50.27682" lon="4.51063">
        <ele>199.13</ele>
        <time>2017-03-12T13:16:06Z</time>
      </trkpt>
      <trkpt lat="50.27673" lon="4.51088">
        <ele>201.05</ele>
        <time>2017-03-12T13:16:19Z</time>
      </trkpt>
      <trkpt lat="50.27669" lon="4.51097">
        <ele>202.01</ele>
        <time>2017-03-12T13:16:26Z</time>
      </trkpt>
      <trkpt lat="50.27652" lon="4.51108">
        <ele>203.94</ele>
        <time>2017-03-12T13:16:44Z</time>
      </trkpt>
      <trkpt lat="50.27638" lon="4.5112">
        <ele>206.34</ele>
        <time>2017-03-12T13:17:00Z</time>
      </trkpt>
      <trkpt lat="50.27628" lon="4.51133">
        <ele>208.26</ele>
        <time>2017-03-12T13:17:14Z</time>
      </trkpt>
      <trkpt lat="50.27615" lon="4.51148">
        <ele>212.11</ele>
        <time>2017-03-12T13:17:31Z</time>
      </trkpt>
      <trkpt lat="50.27609" lon="4.51154">
        <ele>212.59</ele>
        <time>2017-03-12T13:17:40Z</time>
      </trkpt>
      <trkpt lat="50.27599" lon="4.51156">
        <ele>214.99</ele>
        <time>2017-03-12T13:17:53Z</time>
      </trkpt>
      <trkpt lat="50.27582" lon="4.51154">
        <ele>217.4</ele>
        <time>2017-03-12T13:18:13Z</time>
      </trkpt>
      <trkpt lat="50.27567" lon="4.51153">
        <ele>218.84</ele>
        <time>2017-03-12T13:18:27Z</time>
      </trkpt>
      <trkpt lat="50.27561" lon="4.51154">
        <ele>219.8</ele>
        <time>2017-03-12T13:18:30Z</time>
      </trkpt>
      <trkpt lat="50.27554" lon="4.51152">
        <ele>220.76</ele>
        <time>2017-03-12T13:18:41Z</time>
      </trkpt>
      <trkpt lat="50.2755" lon="4.51152">
        <ele>221.24</ele>
        <time>2017-03-12T13:18:46Z</time>
      </trkpt>
      <trkpt lat="50.27547" lon="4.5115">
        <ele>221.72</ele>
        <time>2017-03-12T13:18:51Z</time>
      </trkpt>
      <trkpt lat="50.27534" lon="4.51146">
        <ele>224.12</ele>
        <time>2017-03-12T13:19:03Z</time>
      </trkpt>
      <trkpt lat="50.27519" lon="4.51133">
        <ele>226.05</ele>
        <time>2017-03-12T13:19:17Z</time>
      </trkpt>
      <trkpt lat="50.27516" lon="4.51131">
        <ele>226.53</ele>
        <time>2017-03-12T13:19:21Z</time>
      </trkpt>
      <trkpt lat="50.27512" lon="4.51128">
        <ele>227.01</ele>
        <time>2017-03-12T13:19:27Z</time>
      </trkpt>
      <trkpt lat="50.27506" lon="4.51123">
        <ele>227.97</ele>
        <time>2017-03-12T13:19:33Z</time>
      </trkpt>
      <trkpt lat="50.27501" lon="4.51118">
        <ele>228.45</ele>
        <time>2017-03-12T13:19:39Z</time>
      </trkpt>
      <trkpt lat="50.27491" lon="4.51113">
        <ele>229.89</ele>
        <time>2017-03-12T13:19:47Z</time>
      </trkpt>
      <trkpt lat="50.27474" lon="4.51098">
        <ele>231.33</ele>
        <time>2017-03-12T13:20:00Z</time>
      </trkpt>
      <trkpt lat="50.27465" lon="4.51084">
        <ele>232.78</ele>
        <time>2017-03-12T13:20:11Z</time>
      </trkpt>
      <trkpt lat="50.27462" lon="4.5108">
        <ele>232.78</ele>
        <time>2017-03-12T13:20:16Z</time>
      </trkpt>
      <trkpt lat="50.27458" lon="4.5107">
        <ele>233.26</ele>
        <time>2017-03-12T13:20:24Z</time>
      </trkpt>
      <trkpt lat="50.27449" lon="4.51057">
        <ele>234.22</ele>
        <time>2017-03-12T13:20:34Z</time>
      </trkpt>
      <trkpt lat="50.27443" lon="4.51046">
        <ele>235.18</ele>
        <time>2017-03-12T13:20:44Z</time>
      </trkpt>
      <trkpt lat="50.27434" lon="4.51038">
        <ele>236.14</ele>
        <time>2017-03-12T13:20:52Z</time>
      </trkpt>
      <trkpt lat="50.27425" lon="4.51031">
        <ele>237.58</ele>
        <time>2017-03-12T13:21:01Z</time>
      </trkpt>
      <trkpt lat="50.27413" lon="4.51016">
        <ele>238.54</ele>
        <time>2017-03-12T13:21:14Z</time>
      </trkpt>
      <trkpt lat="50.27405" lon="4.51012">
        <ele>239.02</ele>
        <time>2017-03-12T13:21:18Z</time>
      </trkpt>
      <trkpt lat="50.27401" lon="4.51009">
        <ele>239.02</ele>
        <time>2017-03-12T13:21:22Z</time>
      </trkpt>
      <trkpt lat="50.27394" lon="4.51007">
        <ele>240.95</ele>
        <time>2017-03-12T13:21:29Z</time>
      </trkpt>
      <trkpt lat="50.27384" lon="4.51005">
        <ele>243.35</ele>
        <time>2017-03-12T13:21:41Z</time>
      </trkpt>
      <trkpt lat="50.27378" lon="4.51">
        <ele>244.31</ele>
        <time>2017-03-12T13:21:49Z</time>
      </trkpt>
      <trkpt lat="50.27368" lon="4.50992">
        <ele>245.75</ele>
        <time>2017-03-12T13:22:01Z</time>
      </trkpt>
      <trkpt lat="50.27366" lon="4.5099">
        <ele>246.23</ele>
        <time>2017-03-12T13:22:03Z</time>
      </trkpt>
      <trkpt lat="50.27361" lon="4.50986">
        <ele>246.72</ele>
        <time>2017-03-12T13:22:08Z</time>
      </trkpt>
      <trkpt lat="50.27347" lon="4.50979">
        <ele>248.16</ele>
        <time>2017-03-12T13:22:21Z</time>
      </trkpt>
      <trkpt lat="50.27334" lon="4.5097">
        <ele>249.6</ele>
        <time>2017-03-12T13:22:32Z</time>
      </trkpt>
      <trkpt lat="50.27327" lon="4.50964">
        <ele>250.56</ele>
        <time>2017-03-12T13:22:42Z</time>
      </trkpt>
      <trkpt lat="50.27322" lon="4.50962">
        <ele>251.04</ele>
        <time>2017-03-12T13:22:46Z</time>
      </trkpt>
      <trkpt lat="50.27302" lon="4.50955">
        <ele>252</ele>
        <time>2017-03-12T13:22:55Z</time>
      </trkpt>
      <trkpt lat="50.27286" lon="4.50945">
        <ele>252.96</ele>
        <time>2017-03-12T13:23:08Z</time>
      </trkpt>
      <trkpt lat="50.27283" lon="4.50938">
        <ele>253.44</ele>
        <time>2017-03-12T13:23:13Z</time>
      </trkpt>
      <trkpt lat="50.27278" lon="4.50922">
        <ele>252</ele>
        <time>2017-03-12T13:23:18Z</time>
      </trkpt>
      <trkpt lat="50.27278" lon="4.50885">
        <ele>250.08</ele>
        <time>2017-03-12T13:23:33Z</time>
      </trkpt>
      <trkpt lat="50.27281" lon="4.50851">
        <ele>248.16</ele>
        <time>2017-03-12T13:23:50Z</time>
      </trkpt>
      <trkpt lat="50.27282" lon="4.50822">
        <ele>246.23</ele>
        <time>2017-03-12T13:24:05Z</time>
      </trkpt>
      <trkpt lat="50.27283" lon="4.50797">
        <ele>245.27</ele>
        <time>2017-03-12T13:24:17Z</time>
      </trkpt>
      <trkpt lat="50.27284" lon="4.50759">
        <ele>243.35</ele>
        <time>2017-03-12T13:24:33Z</time>
      </trkpt>
      <trkpt lat="50.27285" lon="4.5074">
        <ele>241.91</ele>
        <time>2017-03-12T13:24:43Z</time>
      </trkpt>
      <trkpt lat="50.27286" lon="4.50708">
        <ele>241.43</ele>
        <time>2017-03-12T13:25:00Z</time>
      </trkpt>
      <trkpt lat="50.27286" lon="4.507">
        <ele>239.99</ele>
        <time>2017-03-12T13:25:04Z</time>
      </trkpt>
      <trkpt lat="50.27286" lon="4.50684">
        <ele>239.51</ele>
        <time>2017-03-12T13:25:12Z</time>
      </trkpt>
      <trkpt lat="50.27287" lon="4.50653">
        <ele>237.58</ele>
        <time>2017-03-12T13:25:28Z</time>
      </trkpt>
      <trkpt lat="50.27287" lon="4.50623">
        <ele>236.14</ele>
        <time>2017-03-12T13:25:42Z</time>
      </trkpt>
      <trkpt lat="50.27286" lon="4.50614">
        <ele>236.14</ele>
        <time>2017-03-12T13:25:47Z</time>
      </trkpt>
      <trkpt lat="50.27287" lon="4.50601">
        <ele>235.18</ele>
        <time>2017-03-12T13:25:54Z</time>
      </trkpt>
      <trkpt lat="50.27285" lon="4.50558">
        <ele>232.78</ele>
        <time>2017-03-12T13:26:14Z</time>
      </trkpt>
      <trkpt lat="50.27284" lon="4.50528">
        <ele>230.85</ele>
        <time>2017-03-12T13:26:29Z</time>
      </trkpt>
      <trkpt lat="50.27284" lon="4.50505">
        <ele>228.93</ele>
        <time>2017-03-12T13:26:41Z</time>
      </trkpt>
      <trkpt lat="50.2728" lon="4.50478">
        <ele>226.53</ele>
        <time>2017-03-12T13:26:55Z</time>
      </trkpt>
      <trkpt lat="50.27269" lon="4.50454">
        <ele>224.12</ele>
        <time>2017-03-12T13:27:10Z</time>
      </trkpt>
      <trkpt lat="50.27257" lon="4.50437">
        <ele>222.68</ele>
        <time>2017-03-12T13:27:25Z</time>
      </trkpt>
      <trkpt lat="50.27241" lon="4.5042">
        <ele>220.76</ele>
        <time>2017-03-12T13:27:41Z</time>
      </trkpt>
      <trkpt lat="50.27229" lon="4.50399">
        <ele>218.84</ele>
        <time>2017-03-12T13:27:54Z</time>
      </trkpt>
      <trkpt lat="50.27227" lon="4.50373">
        <ele>218.84</ele>
        <time>2017-03-12T13:28:06Z</time>
      </trkpt>
      <trkpt lat="50.27222" lon="4.50365">
        <ele>218.84</ele>
        <time>2017-03-12T13:28:13Z</time>
      </trkpt>
      <trkpt lat="50.27214" lon="4.50359">
        <ele>219.8</ele>
        <time>2017-03-12T13:28:19Z</time>
      </trkpt>
      <trkpt lat="50.27194" lon="4.50339">
        <ele>220.76</ele>
        <time>2017-03-12T13:28:35Z</time>
      </trkpt>
      <trkpt lat="50.27176" lon="4.50325">
        <ele>223.64</ele>
        <time>2017-03-12T13:28:50Z</time>
      </trkpt>
      <trkpt lat="50.27154" lon="4.50309">
        <ele>225.09</ele>
        <time>2017-03-12T13:29:05Z</time>
      </trkpt>
      <trkpt lat="50.27142" lon="4.50299">
        <ele>227.49</ele>
        <time>2017-03-12T13:29:16Z</time>
      </trkpt>
      <trkpt lat="50.27125" lon="4.50281">
        <ele>229.89</ele>
        <time>2017-03-12T13:29:33Z</time>
      </trkpt>
      <trkpt lat="50.27116" lon="4.50272">
        <ele>231.81</ele>
        <time>2017-03-12T13:29:43Z</time>
      </trkpt>
      <trkpt lat="50.27098" lon="4.50254">
        <ele>234.22</ele>
        <time>2017-03-12T13:30:01Z</time>
      </trkpt>
      <trkpt lat="50.27081" lon="4.50236">
        <ele>237.58</ele>
        <time>2017-03-12T13:30:18Z</time>
      </trkpt>
      <trkpt lat="50.27065" lon="4.50217">
        <ele>239.02</ele>
        <time>2017-03-12T13:30:35Z</time>
      </trkpt>
      <trkpt lat="50.2705" lon="4.50198">
        <ele>240.95</ele>
        <time>2017-03-12T13:30:51Z</time>
      </trkpt>
      <trkpt lat="50.27035" lon="4.50181">
        <ele>242.87</ele>
        <time>2017-03-12T13:31:06Z</time>
      </trkpt>
      <trkpt lat="50.27016" lon="4.50167">
        <ele>245.75</ele>
        <time>2017-03-12T13:31:23Z</time>
      </trkpt>
      <trkpt lat="50.26999" lon="4.50154">
        <ele>247.68</ele>
        <time>2017-03-12T13:31:39Z</time>
      </trkpt>
      <trkpt lat="50.2698" lon="4.50145">
        <ele>249.12</ele>
        <time>2017-03-12T13:31:54Z</time>
      </trkpt>
      <trkpt lat="50.26954" lon="4.50136">
        <ele>251.52</ele>
        <time>2017-03-12T13:32:13Z</time>
      </trkpt>
      <trkpt lat="50.2693" lon="4.50128">
        <ele>252</ele>
        <time>2017-03-12T13:32:31Z</time>
      </trkpt>
      <trkpt lat="50.26907" lon="4.50122">
        <ele>252.96</ele>
        <time>2017-03-12T13:32:49Z</time>
      </trkpt>
      <trkpt lat="50.2688" lon="4.50121">
        <ele>254.41</ele>
        <time>2017-03-12T13:33:09Z</time>
      </trkpt>
      <trkpt lat="50.26855" lon="4.50124">
        <ele>254.89</ele>
        <time>2017-03-12T13:33:28Z</time>
      </trkpt>
      <trkpt lat="50.26831" lon="4.5013">
        <ele>255.85</ele>
        <time>2017-03-12T13:33:46Z</time>
      </trkpt>
      <trkpt lat="50.26807" lon="4.50137">
        <ele>256.81</ele>
        <time>2017-03-12T13:34:05Z</time>
      </trkpt>
      <trkpt lat="50.26783" lon="4.50148">
        <ele>257.77</ele>
        <time>2017-03-12T13:34:23Z</time>
      </trkpt>
      <trkpt lat="50.26761" lon="4.5016">
        <ele>258.25</ele>
        <time>2017-03-12T13:34:40Z</time>
      </trkpt>
      <trkpt lat="50.26737" lon="4.50175">
        <ele>258.73</ele>
        <time>2017-03-12T13:34:59Z</time>
      </trkpt>
      <trkpt lat="50.26711" lon="4.50194">
        <ele>259.21</ele>
        <time>2017-03-12T13:35:20Z</time>
      </trkpt>
      <trkpt lat="50.26691" lon="4.50212">
        <ele>259.21</ele>
        <time>2017-03-12T13:35:37Z</time>
      </trkpt>
      <trkpt lat="50.26669" lon="4.50232">
        <ele>260.17</ele>
        <time>2017-03-12T13:35:56Z</time>
      </trkpt>
      <trkpt lat="50.26649" lon="4.50255">
        <ele>260.65</ele>
        <time>2017-03-12T13:36:14Z</time>
      </trkpt>
      <trkpt lat="50.26627" lon="4.50277">
        <ele>261.62</ele>
        <time>2017-03-12T13:36:34Z</time>
      </trkpt>
      <trkpt lat="50.26605" lon="4.50297">
        <ele>262.58</ele>
        <time>2017-03-12T13:36:53Z</time>
      </trkpt>
      <trkpt lat="50.26583" lon="4.50322">
        <ele>263.54</ele>
        <time>2017-03-12T13:37:13Z</time>
      </trkpt>
      <trkpt lat="50.26573" lon="4.50357">
        <ele>264.02</ele>
        <time>2017-03-12T13:37:32Z</time>
      </trkpt>
      <trkpt lat="50.26568" lon="4.50378">
        <ele>264.5</ele>
        <time>2017-03-12T13:37:48Z</time>
      </trkpt>
      <trkpt lat="50.26568" lon="4.5038">
        <ele>264.5</ele>
        <time>2017-03-12T13:37:54Z</time>
      </trkpt>
      <trkpt lat="50.26552" lon="4.50402">
        <ele>264.5</ele>
        <time>2017-03-12T13:38:11Z</time>
      </trkpt>
      <trkpt lat="50.26547" lon="4.50407">
        <ele>263.06</ele>
        <time>2017-03-12T13:38:15Z</time>
      </trkpt>
      <trkpt lat="50.26526" lon="4.50417">
        <ele>261.62</ele>
        <time>2017-03-12T13:38:32Z</time>
      </trkpt>
      <trkpt lat="50.26506" lon="4.50416">
        <ele>260.17</ele>
        <time>2017-03-12T13:38:47Z</time>
      </trkpt>
      <trkpt lat="50.26481" lon="4.50416">
        <ele>257.77</ele>
        <time>2017-03-12T13:39:05Z</time>
      </trkpt>
      <trkpt lat="50.26463" lon="4.50421">
        <ele>256.81</ele>
        <time>2017-03-12T13:39:18Z</time>
      </trkpt>
      <trkpt lat="50.26461" lon="4.50423">
        <ele>256.81</ele>
        <time>2017-03-12T13:39:20Z</time>
      </trkpt>
      <trkpt lat="50.26441" lon="4.50437">
        <ele>255.37</ele>
        <time>2017-03-12T13:39:37Z</time>
      </trkpt>
      <trkpt lat="50.26422" lon="4.50454">
        <ele>254.41</ele>
        <time>2017-03-12T13:39:53Z</time>
      </trkpt>
      <trkpt lat="50.26406" lon="4.50468">
        <ele>252.96</ele>
        <time>2017-03-12T13:40:07Z</time>
      </trkpt>
      <trkpt lat="50.2639" lon="4.50485">
        <ele>252</ele>
        <time>2017-03-12T13:40:22Z</time>
      </trkpt>
      <trkpt lat="50.26375" lon="4.50501">
        <ele>251.04</ele>
        <time>2017-03-12T13:40:36Z</time>
      </trkpt>
      <trkpt lat="50.26358" lon="4.50517">
        <ele>250.08</ele>
        <time>2017-03-12T13:40:52Z</time>
      </trkpt>
      <trkpt lat="50.26343" lon="4.50531">
        <ele>249.12</ele>
        <time>2017-03-12T13:41:05Z</time>
      </trkpt>
      <trkpt lat="50.26327" lon="4.50548">
        <ele>247.68</ele>
        <time>2017-03-12T13:41:20Z</time>
      </trkpt>
      <trkpt lat="50.2631" lon="4.50563">
        <ele>246.72</ele>
        <time>2017-03-12T13:41:36Z</time>
      </trkpt>
      <trkpt lat="50.26291" lon="4.50582">
        <ele>245.27</ele>
        <time>2017-03-12T13:41:53Z</time>
      </trkpt>
      <trkpt lat="50.26273" lon="4.50601">
        <ele>243.83</ele>
        <time>2017-03-12T13:42:09Z</time>
      </trkpt>
      <trkpt lat="50.26257" lon="4.50611">
        <ele>242.87</ele>
        <time>2017-03-12T13:42:23Z</time>
      </trkpt>
      <trkpt lat="50.26235" lon="4.50608">
        <ele>242.39</ele>
        <time>2017-03-12T13:42:39Z</time>
      </trkpt>
      <trkpt lat="50.26216" lon="4.50613">
        <ele>241.91</ele>
        <time>2017-03-12T13:42:55Z</time>
      </trkpt>
      <trkpt lat="50.26197" lon="4.50623">
        <ele>241.91</ele>
        <time>2017-03-12T13:43:11Z</time>
      </trkpt>
      <trkpt lat="50.26177" lon="4.50631">
        <ele>241.43</ele>
        <time>2017-03-12T13:43:28Z</time>
      </trkpt>
      <trkpt lat="50.26156" lon="4.5064">
        <ele>241.43</ele>
        <time>2017-03-12T13:43:44Z</time>
      </trkpt>
      <trkpt lat="50.26135" lon="4.50653">
        <ele>240.47</ele>
        <time>2017-03-12T13:44:01Z</time>
      </trkpt>
      <trkpt lat="50.26127" lon="4.50675">
        <ele>239.51</ele>
        <time>2017-03-12T13:44:15Z</time>
      </trkpt>
      <trkpt lat="50.26124" lon="4.50678">
        <ele>238.54</ele>
        <time>2017-03-12T13:44:19Z</time>
      </trkpt>
      <trkpt lat="50.26112" lon="4.50692">
        <ele>236.14</ele>
        <time>2017-03-12T13:44:34Z</time>
      </trkpt>
      <trkpt lat="50.26107" lon="4.50697">
        <ele>235.66</ele>
        <time>2017-03-12T13:44:40Z</time>
      </trkpt>
      <trkpt lat="50.26106" lon="4.50705">
        <ele>235.18</ele>
        <time>2017-03-12T13:44:43Z</time>
      </trkpt>
      <trkpt lat="50.26094" lon="4.50718">
        <ele>234.22</ele>
        <time>2017-03-12T13:44:56Z</time>
      </trkpt>
      <trkpt lat="50.26088" lon="4.50743">
        <ele>233.74</ele>
        <time>2017-03-12T13:45:07Z</time>
      </trkpt>
      <trkpt lat="50.26087" lon="4.50749">
        <ele>233.74</ele>
        <time>2017-03-12T13:45:11Z</time>
      </trkpt>
      <trkpt lat="50.26085" lon="4.50752">
        <ele>233.74</ele>
        <time>2017-03-12T13:45:14Z</time>
      </trkpt>
      <trkpt lat="50.26083" lon="4.50756">
        <ele>233.74</ele>
        <time>2017-03-12T13:45:18Z</time>
      </trkpt>
      <trkpt lat="50.26086" lon="4.50756">
        <ele>235.18</ele>
        <time>2017-03-12T13:45:21Z</time>
      </trkpt>
      <trkpt lat="50.26087" lon="4.50756">
        <ele>235.18</ele>
        <time>2017-03-12T13:45:22Z</time>
      </trkpt>
      <trkpt lat="50.2609" lon="4.50755">
        <ele>235.18</ele>
        <time>2017-03-12T13:45:25Z</time>
      </trkpt>
      <trkpt lat="50.26113" lon="4.50766">
        <ele>235.18</ele>
        <time>2017-03-12T13:45:45Z</time>
      </trkpt>
      <trkpt lat="50.26122" lon="4.50766">
        <ele>235.18</ele>
        <time>2017-03-12T13:45:55Z</time>
      </trkpt>
      <trkpt lat="50.26137" lon="4.50765">
        <ele>236.14</ele>
        <time>2017-03-12T13:46:10Z</time>
      </trkpt>
      <trkpt lat="50.26136" lon="4.50766">
        <ele>236.14</ele>
        <time>2017-03-12T13:46:30Z</time>
      </trkpt>
    </trkseg>
  </trk>
</gpx>